<?xml version="1.0" encoding="UTF-8" standalone="no" ?>
<gpx xmlns="http://www.topografix.com/GPX/1/1" xmlns:xsi="http://www.w3.org/2001/XMLSchema-instance" xsi:schemaLocation="http://www.topografix.com/GPX/1/1 http://www.topografix.com/GPX/1/1/gpx.xsd" version="1.1" creator="VisuGPX - https://www.visugpx.com">
  <metadata>
    <name>Samu's Cup 2019</name>
    <desc><![CDATA[régate des SAMU de France
port de Saint Mandrier sur mer
cagnard 16 Garches 2
embarcation Dufour 410
équipage Bruno Fred Cécile Coralyne Sophie Jean Marc Christian
belle météo sur la semaine 
1 BMS 28/05 pas de sortie
14ème/26
détail samuscup.fr]]></desc>
  </metadata>
  <trk>
    <name><![CDATA[Tracé actuel: 29 MAI 2019 11:37]]></name>
    <trkseg>
      <trkpt lat="43.08014" lon="5.92468">
        <ele>-89.27</ele>
        <time>2019-05-29T09:37:12Z</time>
      </trkpt>
      <trkpt lat="43.08038" lon="5.92449">
        <ele>-71.96</ele>
        <time>2019-05-29T09:37:33Z</time>
      </trkpt>
      <trkpt lat="43.08042" lon="5.92446">
        <ele>-62.35</ele>
        <time>2019-05-29T09:38:00Z</time>
      </trkpt>
      <trkpt lat="43.08043" lon="5.92451">
        <ele>-49.37</ele>
        <time>2019-05-29T09:38:27Z</time>
      </trkpt>
      <trkpt lat="43.08041" lon="5.92461">
        <ele>-12.84</ele>
        <time>2019-05-29T09:38:49Z</time>
      </trkpt>
      <trkpt lat="43.0804" lon="5.92462">
        <ele>-1.3</ele>
        <time>2019-05-29T09:39:12Z</time>
      </trkpt>
      <trkpt lat="43.08041" lon="5.92462">
        <ele>1.58</ele>
        <time>2019-05-29T09:39:41Z</time>
      </trkpt>
      <trkpt lat="43.08042" lon="5.92462">
        <ele>1.58</ele>
        <time>2019-05-29T09:40:09Z</time>
      </trkpt>
      <trkpt lat="43.08042" lon="5.92462">
        <ele>1.1</ele>
        <time>2019-05-29T09:40:33Z</time>
      </trkpt>
      <trkpt lat="43.08042" lon="5.92462">
        <ele>1.58</ele>
        <time>2019-05-29T09:40:59Z</time>
      </trkpt>
      <trkpt lat="43.08042" lon="5.92461">
        <ele>1.1</ele>
        <time>2019-05-29T09:41:23Z</time>
      </trkpt>
      <trkpt lat="43.08042" lon="5.92461">
        <ele>1.1</ele>
        <time>2019-05-29T09:41:38Z</time>
      </trkpt>
      <trkpt lat="43.08046" lon="5.9246">
        <ele>0.14</ele>
        <time>2019-05-29T09:41:49Z</time>
      </trkpt>
      <trkpt lat="43.08047" lon="5.92459">
        <ele>-0.82</ele>
        <time>2019-05-29T09:42:05Z</time>
      </trkpt>
      <trkpt lat="43.08048" lon="5.92459">
        <ele>-1.79</ele>
        <time>2019-05-29T09:42:19Z</time>
      </trkpt>
      <trkpt lat="43.08045" lon="5.92461">
        <ele>-0.82</ele>
        <time>2019-05-29T09:42:29Z</time>
      </trkpt>
      <trkpt lat="43.08035" lon="5.92471">
        <ele>-0.82</ele>
        <time>2019-05-29T09:42:41Z</time>
      </trkpt>
      <trkpt lat="43.08032" lon="5.92479">
        <ele>-1.79</ele>
        <time>2019-05-29T09:42:47Z</time>
      </trkpt>
      <trkpt lat="43.08034" lon="5.92489">
        <ele>-0.82</ele>
        <time>2019-05-29T09:42:56Z</time>
      </trkpt>
      <trkpt lat="43.08041" lon="5.92499">
        <ele>0.14</ele>
        <time>2019-05-29T09:43:09Z</time>
      </trkpt>
      <trkpt lat="43.08047" lon="5.92504">
        <ele>0.62</ele>
        <time>2019-05-29T09:43:20Z</time>
      </trkpt>
      <trkpt lat="43.08053" lon="5.92506">
        <ele>0.14</ele>
        <time>2019-05-29T09:43:26Z</time>
      </trkpt>
      <trkpt lat="43.08076" lon="5.92508">
        <ele>0.62</ele>
        <time>2019-05-29T09:43:37Z</time>
      </trkpt>
      <trkpt lat="43.08112" lon="5.92504">
        <ele>-0.34</ele>
        <time>2019-05-29T09:43:51Z</time>
      </trkpt>
      <trkpt lat="43.08141" lon="5.92503">
        <ele>-1.79</ele>
        <time>2019-05-29T09:44:02Z</time>
      </trkpt>
      <trkpt lat="43.08178" lon="5.92499">
        <ele>-2.27</ele>
        <time>2019-05-29T09:44:16Z</time>
      </trkpt>
      <trkpt lat="43.08212" lon="5.92502">
        <ele>-2.75</ele>
        <time>2019-05-29T09:44:28Z</time>
      </trkpt>
      <trkpt lat="43.08237" lon="5.92502">
        <ele>-2.75</ele>
        <time>2019-05-29T09:44:38Z</time>
      </trkpt>
      <trkpt lat="43.08266" lon="5.92502">
        <ele>-1.79</ele>
        <time>2019-05-29T09:44:50Z</time>
      </trkpt>
      <trkpt lat="43.08304" lon="5.92503">
        <ele>-2.27</ele>
        <time>2019-05-29T09:45:05Z</time>
      </trkpt>
      <trkpt lat="43.08333" lon="5.92504">
        <ele>-1.3</ele>
        <time>2019-05-29T09:45:16Z</time>
      </trkpt>
      <trkpt lat="43.08362" lon="5.92508">
        <ele>-1.79</ele>
        <time>2019-05-29T09:45:27Z</time>
      </trkpt>
      <trkpt lat="43.08391" lon="5.92513">
        <ele>-1.79</ele>
        <time>2019-05-29T09:45:39Z</time>
      </trkpt>
      <trkpt lat="43.08419" lon="5.92519">
        <ele>-2.75</ele>
        <time>2019-05-29T09:45:50Z</time>
      </trkpt>
      <trkpt lat="43.08453" lon="5.92526">
        <ele>-3.23</ele>
        <time>2019-05-29T09:46:04Z</time>
      </trkpt>
      <trkpt lat="43.08491" lon="5.92536">
        <ele>-3.71</ele>
        <time>2019-05-29T09:46:19Z</time>
      </trkpt>
      <trkpt lat="43.08531" lon="5.92554">
        <ele>-4.19</ele>
        <time>2019-05-29T09:46:35Z</time>
      </trkpt>
      <trkpt lat="43.08561" lon="5.92567">
        <ele>-5.15</ele>
        <time>2019-05-29T09:46:47Z</time>
      </trkpt>
      <trkpt lat="43.08586" lon="5.92569">
        <ele>-3.71</ele>
        <time>2019-05-29T09:47:00Z</time>
      </trkpt>
      <trkpt lat="43.08592" lon="5.92565">
        <ele>-2.75</ele>
        <time>2019-05-29T09:47:05Z</time>
      </trkpt>
      <trkpt lat="43.08604" lon="5.92553">
        <ele>-3.71</ele>
        <time>2019-05-29T09:47:19Z</time>
      </trkpt>
      <trkpt lat="43.08609" lon="5.92539">
        <ele>-3.23</ele>
        <time>2019-05-29T09:47:33Z</time>
      </trkpt>
      <trkpt lat="43.08609" lon="5.92523">
        <ele>-3.71</ele>
        <time>2019-05-29T09:47:52Z</time>
      </trkpt>
      <trkpt lat="43.0861" lon="5.92516">
        <ele>-3.71</ele>
        <time>2019-05-29T09:48:02Z</time>
      </trkpt>
      <trkpt lat="43.0861" lon="5.92504">
        <ele>-2.75</ele>
        <time>2019-05-29T09:48:17Z</time>
      </trkpt>
      <trkpt lat="43.0861" lon="5.92496">
        <ele>-2.75</ele>
        <time>2019-05-29T09:48:28Z</time>
      </trkpt>
      <trkpt lat="43.08609" lon="5.92487">
        <ele>-1.79</ele>
        <time>2019-05-29T09:48:39Z</time>
      </trkpt>
      <trkpt lat="43.08608" lon="5.92472">
        <ele>-2.27</ele>
        <time>2019-05-29T09:48:55Z</time>
      </trkpt>
      <trkpt lat="43.08609" lon="5.92465">
        <ele>-2.27</ele>
        <time>2019-05-29T09:49:05Z</time>
      </trkpt>
      <trkpt lat="43.08611" lon="5.92456">
        <ele>-1.79</ele>
        <time>2019-05-29T09:49:18Z</time>
      </trkpt>
      <trkpt lat="43.08612" lon="5.92447">
        <ele>-1.79</ele>
        <time>2019-05-29T09:49:30Z</time>
      </trkpt>
      <trkpt lat="43.08613" lon="5.92436">
        <ele>-1.3</ele>
        <time>2019-05-29T09:49:47Z</time>
      </trkpt>
      <trkpt lat="43.08612" lon="5.92428">
        <ele>-2.27</ele>
        <time>2019-05-29T09:49:57Z</time>
      </trkpt>
      <trkpt lat="43.08613" lon="5.92423">
        <ele>-1.3</ele>
        <time>2019-05-29T09:50:07Z</time>
      </trkpt>
      <trkpt lat="43.08613" lon="5.92415">
        <ele>-0.34</ele>
        <time>2019-05-29T09:50:18Z</time>
      </trkpt>
      <trkpt lat="43.08617" lon="5.92407">
        <ele>-1.3</ele>
        <time>2019-05-29T09:50:23Z</time>
      </trkpt>
      <trkpt lat="43.08624" lon="5.92365">
        <ele>0.14</ele>
        <time>2019-05-29T09:50:39Z</time>
      </trkpt>
      <trkpt lat="43.08627" lon="5.92339">
        <ele>-0.82</ele>
        <time>2019-05-29T09:50:47Z</time>
      </trkpt>
      <trkpt lat="43.08635" lon="5.92304">
        <ele>-2.27</ele>
        <time>2019-05-29T09:50:59Z</time>
      </trkpt>
      <trkpt lat="43.08635" lon="5.92301">
        <ele>-2.27</ele>
        <time>2019-05-29T09:51:00Z</time>
      </trkpt>
      <trkpt lat="43.0864" lon="5.92274">
        <ele>-1.79</ele>
        <time>2019-05-29T09:51:11Z</time>
      </trkpt>
      <trkpt lat="43.08647" lon="5.9225">
        <ele>-1.3</ele>
        <time>2019-05-29T09:51:28Z</time>
      </trkpt>
      <trkpt lat="43.08648" lon="5.92248">
        <ele>-3.23</ele>
        <time>2019-05-29T09:51:31Z</time>
      </trkpt>
      <trkpt lat="43.08648" lon="5.9224">
        <ele>-3.71</ele>
        <time>2019-05-29T09:51:40Z</time>
      </trkpt>
      <trkpt lat="43.08648" lon="5.92232">
        <ele>-3.23</ele>
        <time>2019-05-29T09:51:51Z</time>
      </trkpt>
      <trkpt lat="43.08649" lon="5.92224">
        <ele>-2.27</ele>
        <time>2019-05-29T09:52:04Z</time>
      </trkpt>
      <trkpt lat="43.08647" lon="5.9222">
        <ele>-2.75</ele>
        <time>2019-05-29T09:52:13Z</time>
      </trkpt>
      <trkpt lat="43.08647" lon="5.92204">
        <ele>-3.23</ele>
        <time>2019-05-29T09:52:25Z</time>
      </trkpt>
      <trkpt lat="43.08649" lon="5.92202">
        <ele>-3.23</ele>
        <time>2019-05-29T09:52:28Z</time>
      </trkpt>
      <trkpt lat="43.08656" lon="5.92193">
        <ele>-2.75</ele>
        <time>2019-05-29T09:52:43Z</time>
      </trkpt>
      <trkpt lat="43.08658" lon="5.92189">
        <ele>-4.67</ele>
        <time>2019-05-29T09:52:52Z</time>
      </trkpt>
      <trkpt lat="43.08658" lon="5.92184">
        <ele>-3.71</ele>
        <time>2019-05-29T09:53:03Z</time>
      </trkpt>
      <trkpt lat="43.08657" lon="5.92182">
        <ele>-5.63</ele>
        <time>2019-05-29T09:53:14Z</time>
      </trkpt>
      <trkpt lat="43.08656" lon="5.92179">
        <ele>-5.15</ele>
        <time>2019-05-29T09:53:27Z</time>
      </trkpt>
      <trkpt lat="43.08654" lon="5.92171">
        <ele>-3.71</ele>
        <time>2019-05-29T09:53:42Z</time>
      </trkpt>
      <trkpt lat="43.08653" lon="5.92165">
        <ele>-4.19</ele>
        <time>2019-05-29T09:53:48Z</time>
      </trkpt>
      <trkpt lat="43.08651" lon="5.92159">
        <ele>-2.75</ele>
        <time>2019-05-29T09:53:52Z</time>
      </trkpt>
      <trkpt lat="43.08633" lon="5.92153">
        <ele>-2.27</ele>
        <time>2019-05-29T09:54:05Z</time>
      </trkpt>
      <trkpt lat="43.08628" lon="5.92158">
        <ele>-2.27</ele>
        <time>2019-05-29T09:54:08Z</time>
      </trkpt>
      <trkpt lat="43.08623" lon="5.92181">
        <ele>-4.19</ele>
        <time>2019-05-29T09:54:17Z</time>
      </trkpt>
      <trkpt lat="43.08619" lon="5.92194">
        <ele>-2.75</ele>
        <time>2019-05-29T09:54:22Z</time>
      </trkpt>
      <trkpt lat="43.08614" lon="5.92215">
        <ele>-2.27</ele>
        <time>2019-05-29T09:54:30Z</time>
      </trkpt>
      <trkpt lat="43.08601" lon="5.92257">
        <ele>-3.23</ele>
        <time>2019-05-29T09:54:43Z</time>
      </trkpt>
      <trkpt lat="43.08593" lon="5.92293">
        <ele>-4.67</ele>
        <time>2019-05-29T09:54:54Z</time>
      </trkpt>
      <trkpt lat="43.08585" lon="5.92337">
        <ele>-3.71</ele>
        <time>2019-05-29T09:55:07Z</time>
      </trkpt>
      <trkpt lat="43.08576" lon="5.92388">
        <ele>-1.3</ele>
        <time>2019-05-29T09:55:21Z</time>
      </trkpt>
      <trkpt lat="43.08563" lon="5.92435">
        <ele>-2.75</ele>
        <time>2019-05-29T09:55:35Z</time>
      </trkpt>
      <trkpt lat="43.08555" lon="5.92478">
        <ele>-5.15</ele>
        <time>2019-05-29T09:55:47Z</time>
      </trkpt>
      <trkpt lat="43.08554" lon="5.92488">
        <ele>-5.63</ele>
        <time>2019-05-29T09:55:50Z</time>
      </trkpt>
      <trkpt lat="43.08572" lon="5.92502">
        <ele>-4.19</ele>
        <time>2019-05-29T09:56:00Z</time>
      </trkpt>
      <trkpt lat="43.08575" lon="5.92501">
        <ele>-4.19</ele>
        <time>2019-05-29T09:56:02Z</time>
      </trkpt>
      <trkpt lat="43.08581" lon="5.92495">
        <ele>-4.67</ele>
        <time>2019-05-29T09:56:06Z</time>
      </trkpt>
      <trkpt lat="43.08595" lon="5.92474">
        <ele>-4.67</ele>
        <time>2019-05-29T09:56:22Z</time>
      </trkpt>
      <trkpt lat="43.08604" lon="5.92458">
        <ele>-4.67</ele>
        <time>2019-05-29T09:56:37Z</time>
      </trkpt>
      <trkpt lat="43.08608" lon="5.92449">
        <ele>-5.63</ele>
        <time>2019-05-29T09:56:44Z</time>
      </trkpt>
      <trkpt lat="43.08611" lon="5.92443">
        <ele>-5.63</ele>
        <time>2019-05-29T09:56:49Z</time>
      </trkpt>
      <trkpt lat="43.08613" lon="5.9244">
        <ele>-5.15</ele>
        <time>2019-05-29T09:56:51Z</time>
      </trkpt>
      <trkpt lat="43.08637" lon="5.92443">
        <ele>-4.67</ele>
        <time>2019-05-29T09:57:07Z</time>
      </trkpt>
      <trkpt lat="43.08659" lon="5.9248">
        <ele>-3.71</ele>
        <time>2019-05-29T09:57:19Z</time>
      </trkpt>
      <trkpt lat="43.08686" lon="5.92539">
        <ele>-2.75</ele>
        <time>2019-05-29T09:57:34Z</time>
      </trkpt>
      <trkpt lat="43.08711" lon="5.92586">
        <ele>-2.27</ele>
        <time>2019-05-29T09:57:48Z</time>
      </trkpt>
      <trkpt lat="43.08755" lon="5.92647">
        <ele>-1.3</ele>
        <time>2019-05-29T09:58:06Z</time>
      </trkpt>
      <trkpt lat="43.08792" lon="5.92702">
        <ele>-2.27</ele>
        <time>2019-05-29T09:58:21Z</time>
      </trkpt>
      <trkpt lat="43.08816" lon="5.92755">
        <ele>-3.71</ele>
        <time>2019-05-29T09:58:34Z</time>
      </trkpt>
      <trkpt lat="43.08849" lon="5.9282">
        <ele>-3.71</ele>
        <time>2019-05-29T09:58:51Z</time>
      </trkpt>
      <trkpt lat="43.08872" lon="5.92866">
        <ele>-4.19</ele>
        <time>2019-05-29T09:59:03Z</time>
      </trkpt>
      <trkpt lat="43.08892" lon="5.92907">
        <ele>-5.63</ele>
        <time>2019-05-29T09:59:14Z</time>
      </trkpt>
      <trkpt lat="43.08925" lon="5.92962">
        <ele>-5.63</ele>
        <time>2019-05-29T09:59:29Z</time>
      </trkpt>
      <trkpt lat="43.08957" lon="5.93005">
        <ele>-7.55</ele>
        <time>2019-05-29T09:59:42Z</time>
      </trkpt>
      <trkpt lat="43.08985" lon="5.93057">
        <ele>-5.63</ele>
        <time>2019-05-29T09:59:56Z</time>
      </trkpt>
      <trkpt lat="43.0902" lon="5.93124">
        <ele>-2.75</ele>
        <time>2019-05-29T10:00:13Z</time>
      </trkpt>
      <trkpt lat="43.09075" lon="5.93224">
        <ele>0.14</ele>
        <time>2019-05-29T10:00:39Z</time>
      </trkpt>
      <trkpt lat="43.09124" lon="5.93312">
        <ele>0.62</ele>
        <time>2019-05-29T10:01:02Z</time>
      </trkpt>
      <trkpt lat="43.0917" lon="5.93409">
        <ele>-0.34</ele>
        <time>2019-05-29T10:01:26Z</time>
      </trkpt>
      <trkpt lat="43.09201" lon="5.93491">
        <ele>0.14</ele>
        <time>2019-05-29T10:01:45Z</time>
      </trkpt>
      <trkpt lat="43.09234" lon="5.93577">
        <ele>-0.34</ele>
        <time>2019-05-29T10:02:05Z</time>
      </trkpt>
      <trkpt lat="43.09261" lon="5.93649">
        <ele>-0.34</ele>
        <time>2019-05-29T10:02:22Z</time>
      </trkpt>
      <trkpt lat="43.09282" lon="5.9371">
        <ele>0.14</ele>
        <time>2019-05-29T10:02:36Z</time>
      </trkpt>
      <trkpt lat="43.09317" lon="5.93791">
        <ele>-0.34</ele>
        <time>2019-05-29T10:02:55Z</time>
      </trkpt>
      <trkpt lat="43.09347" lon="5.93861">
        <ele>-0.34</ele>
        <time>2019-05-29T10:03:11Z</time>
      </trkpt>
      <trkpt lat="43.09391" lon="5.93941">
        <ele>-0.82</ele>
        <time>2019-05-29T10:03:30Z</time>
      </trkpt>
      <trkpt lat="43.09438" lon="5.94029">
        <ele>-0.82</ele>
        <time>2019-05-29T10:03:52Z</time>
      </trkpt>
      <trkpt lat="43.09482" lon="5.94098">
        <ele>-1.3</ele>
        <time>2019-05-29T10:04:11Z</time>
      </trkpt>
      <trkpt lat="43.09537" lon="5.94203">
        <ele>-1.3</ele>
        <time>2019-05-29T10:04:38Z</time>
      </trkpt>
      <trkpt lat="43.09581" lon="5.94273">
        <ele>-0.82</ele>
        <time>2019-05-29T10:04:57Z</time>
      </trkpt>
      <trkpt lat="43.0962" lon="5.94359">
        <ele>-0.82</ele>
        <time>2019-05-29T10:05:18Z</time>
      </trkpt>
      <trkpt lat="43.09669" lon="5.94454">
        <ele>0.14</ele>
        <time>2019-05-29T10:05:42Z</time>
      </trkpt>
      <trkpt lat="43.0972" lon="5.94526">
        <ele>-1.3</ele>
        <time>2019-05-29T10:06:03Z</time>
      </trkpt>
      <trkpt lat="43.0976" lon="5.94605">
        <ele>0.14</ele>
        <time>2019-05-29T10:06:23Z</time>
      </trkpt>
      <trkpt lat="43.09807" lon="5.94681">
        <ele>-0.34</ele>
        <time>2019-05-29T10:06:44Z</time>
      </trkpt>
      <trkpt lat="43.09846" lon="5.94724">
        <ele>-0.82</ele>
        <time>2019-05-29T10:07:02Z</time>
      </trkpt>
      <trkpt lat="43.09892" lon="5.94762">
        <ele>-0.82</ele>
        <time>2019-05-29T10:07:27Z</time>
      </trkpt>
      <trkpt lat="43.09931" lon="5.94796">
        <ele>-0.82</ele>
        <time>2019-05-29T10:07:49Z</time>
      </trkpt>
      <trkpt lat="43.09974" lon="5.94833">
        <ele>-0.34</ele>
        <time>2019-05-29T10:08:15Z</time>
      </trkpt>
      <trkpt lat="43.10004" lon="5.9486">
        <ele>0.62</ele>
        <time>2019-05-29T10:08:35Z</time>
      </trkpt>
      <trkpt lat="43.10034" lon="5.9489">
        <ele>0.14</ele>
        <time>2019-05-29T10:08:56Z</time>
      </trkpt>
      <trkpt lat="43.10061" lon="5.9492">
        <ele>-0.82</ele>
        <time>2019-05-29T10:09:14Z</time>
      </trkpt>
      <trkpt lat="43.10096" lon="5.94951">
        <ele>-0.34</ele>
        <time>2019-05-29T10:09:34Z</time>
      </trkpt>
      <trkpt lat="43.1014" lon="5.94981">
        <ele>0.62</ele>
        <time>2019-05-29T10:09:56Z</time>
      </trkpt>
      <trkpt lat="43.10186" lon="5.95015">
        <ele>0.14</ele>
        <time>2019-05-29T10:10:16Z</time>
      </trkpt>
      <trkpt lat="43.10233" lon="5.95053">
        <ele>0.14</ele>
        <time>2019-05-29T10:10:36Z</time>
      </trkpt>
      <trkpt lat="43.10277" lon="5.95072">
        <ele>1.1</ele>
        <time>2019-05-29T10:10:55Z</time>
      </trkpt>
      <trkpt lat="43.10337" lon="5.95093">
        <ele>1.1</ele>
        <time>2019-05-29T10:11:18Z</time>
      </trkpt>
      <trkpt lat="43.10393" lon="5.95123">
        <ele>0.14</ele>
        <time>2019-05-29T10:11:37Z</time>
      </trkpt>
      <trkpt lat="43.10392" lon="5.95104">
        <ele>-0.82</ele>
        <time>2019-05-29T10:11:46Z</time>
      </trkpt>
      <trkpt lat="43.10371" lon="5.95072">
        <ele>-0.82</ele>
        <time>2019-05-29T10:12:01Z</time>
      </trkpt>
      <trkpt lat="43.10341" lon="5.9504">
        <ele>-1.3</ele>
        <time>2019-05-29T10:12:17Z</time>
      </trkpt>
      <trkpt lat="43.10333" lon="5.94996">
        <ele>-0.34</ele>
        <time>2019-05-29T10:12:38Z</time>
      </trkpt>
      <trkpt lat="43.10326" lon="5.9496">
        <ele>0.62</ele>
        <time>2019-05-29T10:13:00Z</time>
      </trkpt>
      <trkpt lat="43.10324" lon="5.94923">
        <ele>-0.34</ele>
        <time>2019-05-29T10:13:19Z</time>
      </trkpt>
      <trkpt lat="43.1032" lon="5.94894">
        <ele>-0.34</ele>
        <time>2019-05-29T10:13:40Z</time>
      </trkpt>
      <trkpt lat="43.10311" lon="5.94876">
        <ele>0.62</ele>
        <time>2019-05-29T10:13:59Z</time>
      </trkpt>
      <trkpt lat="43.10302" lon="5.94861">
        <ele>0.62</ele>
        <time>2019-05-29T10:14:17Z</time>
      </trkpt>
      <trkpt lat="43.10293" lon="5.94848">
        <ele>0.62</ele>
        <time>2019-05-29T10:14:35Z</time>
      </trkpt>
      <trkpt lat="43.10277" lon="5.9483">
        <ele>0.62</ele>
        <time>2019-05-29T10:14:53Z</time>
      </trkpt>
      <trkpt lat="43.10261" lon="5.94805">
        <ele>-0.34</ele>
        <time>2019-05-29T10:15:14Z</time>
      </trkpt>
      <trkpt lat="43.10251" lon="5.9479">
        <ele>-0.82</ele>
        <time>2019-05-29T10:15:27Z</time>
      </trkpt>
      <trkpt lat="43.10218" lon="5.94767">
        <ele>-1.79</ele>
        <time>2019-05-29T10:15:50Z</time>
      </trkpt>
      <trkpt lat="43.10187" lon="5.94731">
        <ele>-1.3</ele>
        <time>2019-05-29T10:16:09Z</time>
      </trkpt>
      <trkpt lat="43.10159" lon="5.9468">
        <ele>-1.3</ele>
        <time>2019-05-29T10:16:30Z</time>
      </trkpt>
      <trkpt lat="43.1014" lon="5.94643">
        <ele>-1.3</ele>
        <time>2019-05-29T10:16:48Z</time>
      </trkpt>
      <trkpt lat="43.1011" lon="5.946">
        <ele>-0.82</ele>
        <time>2019-05-29T10:17:08Z</time>
      </trkpt>
      <trkpt lat="43.10076" lon="5.94543">
        <ele>-0.82</ele>
        <time>2019-05-29T10:17:31Z</time>
      </trkpt>
      <trkpt lat="43.10046" lon="5.94495">
        <ele>0.14</ele>
        <time>2019-05-29T10:17:52Z</time>
      </trkpt>
      <trkpt lat="43.10016" lon="5.94458">
        <ele>-1.3</ele>
        <time>2019-05-29T10:18:11Z</time>
      </trkpt>
      <trkpt lat="43.09982" lon="5.94423">
        <ele>-0.82</ele>
        <time>2019-05-29T10:18:34Z</time>
      </trkpt>
      <trkpt lat="43.09952" lon="5.9439">
        <ele>-0.82</ele>
        <time>2019-05-29T10:18:56Z</time>
      </trkpt>
      <trkpt lat="43.09917" lon="5.9435">
        <ele>-0.82</ele>
        <time>2019-05-29T10:19:17Z</time>
      </trkpt>
      <trkpt lat="43.09885" lon="5.94295">
        <ele>0.14</ele>
        <time>2019-05-29T10:19:36Z</time>
      </trkpt>
      <trkpt lat="43.09876" lon="5.94277">
        <ele>0.14</ele>
        <time>2019-05-29T10:19:42Z</time>
      </trkpt>
      <trkpt lat="43.09884" lon="5.94265">
        <ele>0.14</ele>
        <time>2019-05-29T10:19:49Z</time>
      </trkpt>
      <trkpt lat="43.09922" lon="5.94251">
        <ele>0.62</ele>
        <time>2019-05-29T10:20:07Z</time>
      </trkpt>
      <trkpt lat="43.09963" lon="5.9424">
        <ele>0.62</ele>
        <time>2019-05-29T10:20:26Z</time>
      </trkpt>
      <trkpt lat="43.1001" lon="5.94243">
        <ele>-0.34</ele>
        <time>2019-05-29T10:20:49Z</time>
      </trkpt>
      <trkpt lat="43.10045" lon="5.9425">
        <ele>-0.34</ele>
        <time>2019-05-29T10:21:08Z</time>
      </trkpt>
      <trkpt lat="43.10063" lon="5.94252">
        <ele>-0.34</ele>
        <time>2019-05-29T10:21:19Z</time>
      </trkpt>
      <trkpt lat="43.10059" lon="5.94232">
        <ele>-0.82</ele>
        <time>2019-05-29T10:21:31Z</time>
      </trkpt>
      <trkpt lat="43.10049" lon="5.94184">
        <ele>-0.82</ele>
        <time>2019-05-29T10:21:51Z</time>
      </trkpt>
      <trkpt lat="43.10039" lon="5.94132">
        <ele>-1.3</ele>
        <time>2019-05-29T10:22:10Z</time>
      </trkpt>
      <trkpt lat="43.10022" lon="5.94079">
        <ele>-1.3</ele>
        <time>2019-05-29T10:22:32Z</time>
      </trkpt>
      <trkpt lat="43.10007" lon="5.94035">
        <ele>-1.3</ele>
        <time>2019-05-29T10:22:52Z</time>
      </trkpt>
      <trkpt lat="43.09989" lon="5.93983">
        <ele>-0.82</ele>
        <time>2019-05-29T10:23:15Z</time>
      </trkpt>
      <trkpt lat="43.09973" lon="5.93953">
        <ele>-1.3</ele>
        <time>2019-05-29T10:23:33Z</time>
      </trkpt>
      <trkpt lat="43.09945" lon="5.93917">
        <ele>-1.3</ele>
        <time>2019-05-29T10:23:58Z</time>
      </trkpt>
      <trkpt lat="43.09915" lon="5.9388">
        <ele>-0.34</ele>
        <time>2019-05-29T10:24:20Z</time>
      </trkpt>
      <trkpt lat="43.09877" lon="5.93843">
        <ele>-1.3</ele>
        <time>2019-05-29T10:24:40Z</time>
      </trkpt>
      <trkpt lat="43.09835" lon="5.93805">
        <ele>-0.82</ele>
        <time>2019-05-29T10:25:03Z</time>
      </trkpt>
      <trkpt lat="43.09822" lon="5.9377">
        <ele>-0.34</ele>
        <time>2019-05-29T10:25:21Z</time>
      </trkpt>
      <trkpt lat="43.09845" lon="5.93756">
        <ele>-0.34</ele>
        <time>2019-05-29T10:25:44Z</time>
      </trkpt>
      <trkpt lat="43.0987" lon="5.93756">
        <ele>-0.34</ele>
        <time>2019-05-29T10:26:01Z</time>
      </trkpt>
      <trkpt lat="43.09901" lon="5.93761">
        <ele>-0.34</ele>
        <time>2019-05-29T10:26:19Z</time>
      </trkpt>
      <trkpt lat="43.09929" lon="5.93771">
        <ele>0.14</ele>
        <time>2019-05-29T10:26:38Z</time>
      </trkpt>
      <trkpt lat="43.09957" lon="5.9379">
        <ele>-0.34</ele>
        <time>2019-05-29T10:26:57Z</time>
      </trkpt>
      <trkpt lat="43.10004" lon="5.93823">
        <ele>-1.3</ele>
        <time>2019-05-29T10:27:21Z</time>
      </trkpt>
      <trkpt lat="43.1002" lon="5.93813">
        <ele>-0.82</ele>
        <time>2019-05-29T10:27:33Z</time>
      </trkpt>
      <trkpt lat="43.10008" lon="5.9377">
        <ele>-1.3</ele>
        <time>2019-05-29T10:27:51Z</time>
      </trkpt>
      <trkpt lat="43.09981" lon="5.93718">
        <ele>-2.27</ele>
        <time>2019-05-29T10:28:15Z</time>
      </trkpt>
      <trkpt lat="43.09957" lon="5.93678">
        <ele>-1.3</ele>
        <time>2019-05-29T10:28:37Z</time>
      </trkpt>
      <trkpt lat="43.09931" lon="5.93632">
        <ele>-1.3</ele>
        <time>2019-05-29T10:29:03Z</time>
      </trkpt>
      <trkpt lat="43.09909" lon="5.93595">
        <ele>-1.79</ele>
        <time>2019-05-29T10:29:22Z</time>
      </trkpt>
      <trkpt lat="43.09885" lon="5.93547">
        <ele>-1.79</ele>
        <time>2019-05-29T10:29:41Z</time>
      </trkpt>
      <trkpt lat="43.09865" lon="5.93506">
        <ele>-1.79</ele>
        <time>2019-05-29T10:29:58Z</time>
      </trkpt>
      <trkpt lat="43.09845" lon="5.93461">
        <ele>-1.79</ele>
        <time>2019-05-29T10:30:20Z</time>
      </trkpt>
      <trkpt lat="43.09844" lon="5.93459">
        <ele>-1.79</ele>
        <time>2019-05-29T10:30:21Z</time>
      </trkpt>
      <trkpt lat="43.09822" lon="5.93429">
        <ele>-1.3</ele>
        <time>2019-05-29T10:30:36Z</time>
      </trkpt>
      <trkpt lat="43.09813" lon="5.93409">
        <ele>-1.3</ele>
        <time>2019-05-29T10:30:42Z</time>
      </trkpt>
      <trkpt lat="43.09795" lon="5.93425">
        <ele>-0.82</ele>
        <time>2019-05-29T10:30:51Z</time>
      </trkpt>
      <trkpt lat="43.09787" lon="5.93485">
        <ele>-0.34</ele>
        <time>2019-05-29T10:31:09Z</time>
      </trkpt>
      <trkpt lat="43.09776" lon="5.9356">
        <ele>-0.34</ele>
        <time>2019-05-29T10:31:32Z</time>
      </trkpt>
      <trkpt lat="43.09769" lon="5.93625">
        <ele>-0.34</ele>
        <time>2019-05-29T10:31:54Z</time>
      </trkpt>
      <trkpt lat="43.09766" lon="5.93688">
        <ele>-0.82</ele>
        <time>2019-05-29T10:32:17Z</time>
      </trkpt>
      <trkpt lat="43.09772" lon="5.93747">
        <ele>-0.34</ele>
        <time>2019-05-29T10:32:40Z</time>
      </trkpt>
      <trkpt lat="43.09779" lon="5.93801">
        <ele>-0.82</ele>
        <time>2019-05-29T10:33:04Z</time>
      </trkpt>
      <trkpt lat="43.09786" lon="5.93847">
        <ele>0.62</ele>
        <time>2019-05-29T10:33:28Z</time>
      </trkpt>
      <trkpt lat="43.09794" lon="5.93886">
        <ele>-0.34</ele>
        <time>2019-05-29T10:33:51Z</time>
      </trkpt>
      <trkpt lat="43.09806" lon="5.93922">
        <ele>0.14</ele>
        <time>2019-05-29T10:34:14Z</time>
      </trkpt>
      <trkpt lat="43.09818" lon="5.93952">
        <ele>0.62</ele>
        <time>2019-05-29T10:34:33Z</time>
      </trkpt>
      <trkpt lat="43.09833" lon="5.93988">
        <ele>0.62</ele>
        <time>2019-05-29T10:34:55Z</time>
      </trkpt>
      <trkpt lat="43.09855" lon="5.94021">
        <ele>-0.82</ele>
        <time>2019-05-29T10:35:15Z</time>
      </trkpt>
      <trkpt lat="43.09883" lon="5.94033">
        <ele>-0.82</ele>
        <time>2019-05-29T10:35:30Z</time>
      </trkpt>
      <trkpt lat="43.09916" lon="5.94019">
        <ele>-0.82</ele>
        <time>2019-05-29T10:35:55Z</time>
      </trkpt>
      <trkpt lat="43.09935" lon="5.94029">
        <ele>-0.34</ele>
        <time>2019-05-29T10:36:10Z</time>
      </trkpt>
      <trkpt lat="43.09953" lon="5.94088">
        <ele>1.1</ele>
        <time>2019-05-29T10:36:32Z</time>
      </trkpt>
      <trkpt lat="43.09971" lon="5.94151">
        <ele>-0.34</ele>
        <time>2019-05-29T10:36:56Z</time>
      </trkpt>
      <trkpt lat="43.09989" lon="5.94211">
        <ele>0.62</ele>
        <time>2019-05-29T10:37:17Z</time>
      </trkpt>
      <trkpt lat="43.10009" lon="5.94284">
        <ele>-0.34</ele>
        <time>2019-05-29T10:37:42Z</time>
      </trkpt>
      <trkpt lat="43.10018" lon="5.94331">
        <ele>0.14</ele>
        <time>2019-05-29T10:38:00Z</time>
      </trkpt>
      <trkpt lat="43.10037" lon="5.94386">
        <ele>-0.34</ele>
        <time>2019-05-29T10:38:23Z</time>
      </trkpt>
      <trkpt lat="43.10047" lon="5.94437">
        <ele>0.62</ele>
        <time>2019-05-29T10:38:44Z</time>
      </trkpt>
      <trkpt lat="43.10051" lon="5.94486">
        <ele>-0.34</ele>
        <time>2019-05-29T10:39:04Z</time>
      </trkpt>
      <trkpt lat="43.10059" lon="5.94551">
        <ele>-0.82</ele>
        <time>2019-05-29T10:39:28Z</time>
      </trkpt>
      <trkpt lat="43.10061" lon="5.94599">
        <ele>-0.34</ele>
        <time>2019-05-29T10:39:46Z</time>
      </trkpt>
      <trkpt lat="43.10053" lon="5.94651">
        <ele>0.14</ele>
        <time>2019-05-29T10:40:08Z</time>
      </trkpt>
      <trkpt lat="43.10046" lon="5.94704">
        <ele>-0.34</ele>
        <time>2019-05-29T10:40:30Z</time>
      </trkpt>
      <trkpt lat="43.10045" lon="5.94761">
        <ele>-0.82</ele>
        <time>2019-05-29T10:40:50Z</time>
      </trkpt>
      <trkpt lat="43.10039" lon="5.94837">
        <ele>-0.34</ele>
        <time>2019-05-29T10:41:16Z</time>
      </trkpt>
      <trkpt lat="43.10035" lon="5.94917">
        <ele>-0.34</ele>
        <time>2019-05-29T10:41:43Z</time>
      </trkpt>
      <trkpt lat="43.10033" lon="5.94984">
        <ele>-0.82</ele>
        <time>2019-05-29T10:42:06Z</time>
      </trkpt>
      <trkpt lat="43.10033" lon="5.95045">
        <ele>-0.34</ele>
        <time>2019-05-29T10:42:27Z</time>
      </trkpt>
      <trkpt lat="43.10034" lon="5.95126">
        <ele>-0.34</ele>
        <time>2019-05-29T10:42:54Z</time>
      </trkpt>
      <trkpt lat="43.10036" lon="5.95194">
        <ele>0.14</ele>
        <time>2019-05-29T10:43:17Z</time>
      </trkpt>
      <trkpt lat="43.1004" lon="5.95263">
        <ele>0.14</ele>
        <time>2019-05-29T10:43:41Z</time>
      </trkpt>
      <trkpt lat="43.10039" lon="5.95332">
        <ele>-1.3</ele>
        <time>2019-05-29T10:44:05Z</time>
      </trkpt>
      <trkpt lat="43.10038" lon="5.95401">
        <ele>-0.34</ele>
        <time>2019-05-29T10:44:30Z</time>
      </trkpt>
      <trkpt lat="43.10041" lon="5.95464">
        <ele>-0.82</ele>
        <time>2019-05-29T10:44:52Z</time>
      </trkpt>
      <trkpt lat="43.10043" lon="5.95529">
        <ele>-1.3</ele>
        <time>2019-05-29T10:45:15Z</time>
      </trkpt>
      <trkpt lat="43.10048" lon="5.95589">
        <ele>-0.34</ele>
        <time>2019-05-29T10:45:36Z</time>
      </trkpt>
      <trkpt lat="43.10054" lon="5.95646">
        <ele>0.14</ele>
        <time>2019-05-29T10:45:56Z</time>
      </trkpt>
      <trkpt lat="43.10057" lon="5.95694">
        <ele>0.14</ele>
        <time>2019-05-29T10:46:13Z</time>
      </trkpt>
      <trkpt lat="43.10063" lon="5.95761">
        <ele>1.1</ele>
        <time>2019-05-29T10:46:36Z</time>
      </trkpt>
      <trkpt lat="43.10068" lon="5.95824">
        <ele>3.02</ele>
        <time>2019-05-29T10:46:59Z</time>
      </trkpt>
      <trkpt lat="43.10074" lon="5.95897">
        <ele>2.54</ele>
        <time>2019-05-29T10:47:23Z</time>
      </trkpt>
      <trkpt lat="43.10081" lon="5.95966">
        <ele>1.58</ele>
        <time>2019-05-29T10:47:45Z</time>
      </trkpt>
      <trkpt lat="43.1009" lon="5.96028">
        <ele>1.1</ele>
        <time>2019-05-29T10:48:07Z</time>
      </trkpt>
      <trkpt lat="43.10101" lon="5.96093">
        <ele>0.62</ele>
        <time>2019-05-29T10:48:28Z</time>
      </trkpt>
      <trkpt lat="43.1011" lon="5.96142">
        <ele>0.14</ele>
        <time>2019-05-29T10:48:43Z</time>
      </trkpt>
      <trkpt lat="43.10117" lon="5.96211">
        <ele>-0.34</ele>
        <time>2019-05-29T10:49:04Z</time>
      </trkpt>
      <trkpt lat="43.10111" lon="5.96272">
        <ele>-0.34</ele>
        <time>2019-05-29T10:49:24Z</time>
      </trkpt>
      <trkpt lat="43.10095" lon="5.96319">
        <ele>0.62</ele>
        <time>2019-05-29T10:49:40Z</time>
      </trkpt>
      <trkpt lat="43.10077" lon="5.96378">
        <ele>0.62</ele>
        <time>2019-05-29T10:50:00Z</time>
      </trkpt>
      <trkpt lat="43.10058" lon="5.96444">
        <ele>0.62</ele>
        <time>2019-05-29T10:50:23Z</time>
      </trkpt>
      <trkpt lat="43.10036" lon="5.96512">
        <ele>0.14</ele>
        <time>2019-05-29T10:50:45Z</time>
      </trkpt>
      <trkpt lat="43.10014" lon="5.96575">
        <ele>0.14</ele>
        <time>2019-05-29T10:51:04Z</time>
      </trkpt>
      <trkpt lat="43.09979" lon="5.96665">
        <ele>-0.34</ele>
        <time>2019-05-29T10:51:30Z</time>
      </trkpt>
      <trkpt lat="43.09943" lon="5.9675">
        <ele>-0.34</ele>
        <time>2019-05-29T10:51:55Z</time>
      </trkpt>
      <trkpt lat="43.09909" lon="5.96823">
        <ele>-0.34</ele>
        <time>2019-05-29T10:52:18Z</time>
      </trkpt>
      <trkpt lat="43.09879" lon="5.96892">
        <ele>1.1</ele>
        <time>2019-05-29T10:52:40Z</time>
      </trkpt>
      <trkpt lat="43.09865" lon="5.96929">
        <ele>0.14</ele>
        <time>2019-05-29T10:52:50Z</time>
      </trkpt>
      <trkpt lat="43.09835" lon="5.96991">
        <ele>-1.79</ele>
        <time>2019-05-29T10:53:07Z</time>
      </trkpt>
      <trkpt lat="43.09807" lon="5.97056">
        <ele>-1.3</ele>
        <time>2019-05-29T10:53:24Z</time>
      </trkpt>
      <trkpt lat="43.09775" lon="5.97129">
        <ele>-0.82</ele>
        <time>2019-05-29T10:53:43Z</time>
      </trkpt>
      <trkpt lat="43.09745" lon="5.97195">
        <ele>-0.82</ele>
        <time>2019-05-29T10:54:01Z</time>
      </trkpt>
      <trkpt lat="43.09713" lon="5.9726">
        <ele>0.62</ele>
        <time>2019-05-29T10:54:19Z</time>
      </trkpt>
      <trkpt lat="43.09685" lon="5.97321">
        <ele>-0.34</ele>
        <time>2019-05-29T10:54:35Z</time>
      </trkpt>
      <trkpt lat="43.09652" lon="5.97396">
        <ele>-1.79</ele>
        <time>2019-05-29T10:54:55Z</time>
      </trkpt>
      <trkpt lat="43.09622" lon="5.97468">
        <ele>-1.3</ele>
        <time>2019-05-29T10:55:14Z</time>
      </trkpt>
      <trkpt lat="43.09599" lon="5.9752">
        <ele>-1.3</ele>
        <time>2019-05-29T10:55:28Z</time>
      </trkpt>
      <trkpt lat="43.09576" lon="5.97571">
        <ele>-1.3</ele>
        <time>2019-05-29T10:55:42Z</time>
      </trkpt>
      <trkpt lat="43.09551" lon="5.97626">
        <ele>0.14</ele>
        <time>2019-05-29T10:55:57Z</time>
      </trkpt>
      <trkpt lat="43.09526" lon="5.97681">
        <ele>0.14</ele>
        <time>2019-05-29T10:56:12Z</time>
      </trkpt>
      <trkpt lat="43.09506" lon="5.9773">
        <ele>0.62</ele>
        <time>2019-05-29T10:56:26Z</time>
      </trkpt>
      <trkpt lat="43.0949" lon="5.97766">
        <ele>0.62</ele>
        <time>2019-05-29T10:56:37Z</time>
      </trkpt>
      <trkpt lat="43.09468" lon="5.97813">
        <ele>0.62</ele>
        <time>2019-05-29T10:56:50Z</time>
      </trkpt>
      <trkpt lat="43.0944" lon="5.97878">
        <ele>0.14</ele>
        <time>2019-05-29T10:57:08Z</time>
      </trkpt>
      <trkpt lat="43.0942" lon="5.97928">
        <ele>0.14</ele>
        <time>2019-05-29T10:57:22Z</time>
      </trkpt>
      <trkpt lat="43.09399" lon="5.97983">
        <ele>-0.82</ele>
        <time>2019-05-29T10:57:38Z</time>
      </trkpt>
      <trkpt lat="43.09377" lon="5.98038">
        <ele>-0.34</ele>
        <time>2019-05-29T10:57:54Z</time>
      </trkpt>
      <trkpt lat="43.09353" lon="5.98094">
        <ele>0.14</ele>
        <time>2019-05-29T10:58:11Z</time>
      </trkpt>
      <trkpt lat="43.09335" lon="5.98139">
        <ele>0.62</ele>
        <time>2019-05-29T10:58:24Z</time>
      </trkpt>
      <trkpt lat="43.09318" lon="5.98184">
        <ele>1.1</ele>
        <time>2019-05-29T10:58:38Z</time>
      </trkpt>
      <trkpt lat="43.09301" lon="5.98231">
        <ele>0.62</ele>
        <time>2019-05-29T10:58:53Z</time>
      </trkpt>
      <trkpt lat="43.09283" lon="5.98269">
        <ele>0.62</ele>
        <time>2019-05-29T10:59:07Z</time>
      </trkpt>
      <trkpt lat="43.09269" lon="5.98306">
        <ele>1.1</ele>
        <time>2019-05-29T10:59:20Z</time>
      </trkpt>
      <trkpt lat="43.09247" lon="5.98355">
        <ele>1.1</ele>
        <time>2019-05-29T10:59:38Z</time>
      </trkpt>
      <trkpt lat="43.09232" lon="5.98391">
        <ele>0.62</ele>
        <time>2019-05-29T10:59:50Z</time>
      </trkpt>
      <trkpt lat="43.09219" lon="5.98433">
        <ele>0.14</ele>
        <time>2019-05-29T11:00:03Z</time>
      </trkpt>
      <trkpt lat="43.09204" lon="5.98478">
        <ele>0.62</ele>
        <time>2019-05-29T11:00:18Z</time>
      </trkpt>
      <trkpt lat="43.09184" lon="5.98521">
        <ele>0.62</ele>
        <time>2019-05-29T11:00:34Z</time>
      </trkpt>
      <trkpt lat="43.09165" lon="5.98562">
        <ele>-0.34</ele>
        <time>2019-05-29T11:00:49Z</time>
      </trkpt>
      <trkpt lat="43.0915" lon="5.98595">
        <ele>-0.34</ele>
        <time>2019-05-29T11:01:00Z</time>
      </trkpt>
      <trkpt lat="43.09128" lon="5.98633">
        <ele>-0.34</ele>
        <time>2019-05-29T11:01:12Z</time>
      </trkpt>
      <trkpt lat="43.09098" lon="5.98691">
        <ele>-0.34</ele>
        <time>2019-05-29T11:01:28Z</time>
      </trkpt>
      <trkpt lat="43.09071" lon="5.98749">
        <ele>-0.34</ele>
        <time>2019-05-29T11:01:44Z</time>
      </trkpt>
      <trkpt lat="43.09045" lon="5.98806">
        <ele>0.14</ele>
        <time>2019-05-29T11:02:00Z</time>
      </trkpt>
      <trkpt lat="43.09022" lon="5.98862">
        <ele>0.14</ele>
        <time>2019-05-29T11:02:16Z</time>
      </trkpt>
      <trkpt lat="43.08997" lon="5.98915">
        <ele>0.14</ele>
        <time>2019-05-29T11:02:31Z</time>
      </trkpt>
      <trkpt lat="43.08976" lon="5.9896">
        <ele>0.14</ele>
        <time>2019-05-29T11:02:44Z</time>
      </trkpt>
      <trkpt lat="43.08955" lon="5.99005">
        <ele>0.14</ele>
        <time>2019-05-29T11:02:57Z</time>
      </trkpt>
      <trkpt lat="43.08933" lon="5.99046">
        <ele>-0.34</ele>
        <time>2019-05-29T11:03:09Z</time>
      </trkpt>
      <trkpt lat="43.08905" lon="5.99084">
        <ele>-0.34</ele>
        <time>2019-05-29T11:03:21Z</time>
      </trkpt>
      <trkpt lat="43.08903" lon="5.99087">
        <ele>-0.34</ele>
        <time>2019-05-29T11:03:22Z</time>
      </trkpt>
      <trkpt lat="43.0888" lon="5.99124">
        <ele>-1.3</ele>
        <time>2019-05-29T11:03:33Z</time>
      </trkpt>
      <trkpt lat="43.08861" lon="5.99168">
        <ele>-0.82</ele>
        <time>2019-05-29T11:03:47Z</time>
      </trkpt>
      <trkpt lat="43.08859" lon="5.99207">
        <ele>-0.82</ele>
        <time>2019-05-29T11:04:00Z</time>
      </trkpt>
      <trkpt lat="43.08858" lon="5.99219">
        <ele>-0.82</ele>
        <time>2019-05-29T11:04:04Z</time>
      </trkpt>
      <trkpt lat="43.0886" lon="5.99237">
        <ele>-0.82</ele>
        <time>2019-05-29T11:04:10Z</time>
      </trkpt>
      <trkpt lat="43.08858" lon="5.99267">
        <ele>-0.34</ele>
        <time>2019-05-29T11:04:20Z</time>
      </trkpt>
      <trkpt lat="43.08855" lon="5.99282">
        <ele>-0.34</ele>
        <time>2019-05-29T11:04:25Z</time>
      </trkpt>
      <trkpt lat="43.08853" lon="5.99298">
        <ele>-0.34</ele>
        <time>2019-05-29T11:04:30Z</time>
      </trkpt>
      <trkpt lat="43.08849" lon="5.99345">
        <ele>0.14</ele>
        <time>2019-05-29T11:04:43Z</time>
      </trkpt>
      <trkpt lat="43.08851" lon="5.99384">
        <ele>0.14</ele>
        <time>2019-05-29T11:04:53Z</time>
      </trkpt>
      <trkpt lat="43.08876" lon="5.99413">
        <ele>0.62</ele>
        <time>2019-05-29T11:05:04Z</time>
      </trkpt>
      <trkpt lat="43.08902" lon="5.99397">
        <ele>0.14</ele>
        <time>2019-05-29T11:05:14Z</time>
      </trkpt>
      <trkpt lat="43.08944" lon="5.99365">
        <ele>1.1</ele>
        <time>2019-05-29T11:05:29Z</time>
      </trkpt>
      <trkpt lat="43.08974" lon="5.99337">
        <ele>1.1</ele>
        <time>2019-05-29T11:05:40Z</time>
      </trkpt>
      <trkpt lat="43.09014" lon="5.99303">
        <ele>0.62</ele>
        <time>2019-05-29T11:05:53Z</time>
      </trkpt>
      <trkpt lat="43.09051" lon="5.99272">
        <ele>1.1</ele>
        <time>2019-05-29T11:06:05Z</time>
      </trkpt>
      <trkpt lat="43.0909" lon="5.99235">
        <ele>1.1</ele>
        <time>2019-05-29T11:06:18Z</time>
      </trkpt>
      <trkpt lat="43.09123" lon="5.99209">
        <ele>0.62</ele>
        <time>2019-05-29T11:06:29Z</time>
      </trkpt>
      <trkpt lat="43.09164" lon="5.99184">
        <ele>0.62</ele>
        <time>2019-05-29T11:06:42Z</time>
      </trkpt>
      <trkpt lat="43.09198" lon="5.99157">
        <ele>0.62</ele>
        <time>2019-05-29T11:06:54Z</time>
      </trkpt>
      <trkpt lat="43.09233" lon="5.99126">
        <ele>0.14</ele>
        <time>2019-05-29T11:07:07Z</time>
      </trkpt>
      <trkpt lat="43.09267" lon="5.99093">
        <ele>0.14</ele>
        <time>2019-05-29T11:07:20Z</time>
      </trkpt>
      <trkpt lat="43.09303" lon="5.99054">
        <ele>-0.34</ele>
        <time>2019-05-29T11:07:34Z</time>
      </trkpt>
      <trkpt lat="43.09339" lon="5.99011">
        <ele>-1.79</ele>
        <time>2019-05-29T11:07:49Z</time>
      </trkpt>
      <trkpt lat="43.09368" lon="5.98972">
        <ele>-1.3</ele>
        <time>2019-05-29T11:08:03Z</time>
      </trkpt>
      <trkpt lat="43.09396" lon="5.98937">
        <ele>-1.79</ele>
        <time>2019-05-29T11:08:16Z</time>
      </trkpt>
      <trkpt lat="43.09424" lon="5.989">
        <ele>-2.27</ele>
        <time>2019-05-29T11:08:29Z</time>
      </trkpt>
      <trkpt lat="43.09452" lon="5.98867">
        <ele>-1.79</ele>
        <time>2019-05-29T11:08:42Z</time>
      </trkpt>
      <trkpt lat="43.09483" lon="5.9883">
        <ele>-2.27</ele>
        <time>2019-05-29T11:08:58Z</time>
      </trkpt>
      <trkpt lat="43.0951" lon="5.98798">
        <ele>-1.3</ele>
        <time>2019-05-29T11:09:13Z</time>
      </trkpt>
      <trkpt lat="43.09538" lon="5.98769">
        <ele>-1.79</ele>
        <time>2019-05-29T11:09:27Z</time>
      </trkpt>
      <trkpt lat="43.09571" lon="5.98735">
        <ele>-2.27</ele>
        <time>2019-05-29T11:09:42Z</time>
      </trkpt>
      <trkpt lat="43.09595" lon="5.98704">
        <ele>-1.3</ele>
        <time>2019-05-29T11:09:54Z</time>
      </trkpt>
      <trkpt lat="43.09621" lon="5.98671">
        <ele>-0.82</ele>
        <time>2019-05-29T11:10:07Z</time>
      </trkpt>
      <trkpt lat="43.09647" lon="5.98641">
        <ele>-2.75</ele>
        <time>2019-05-29T11:10:19Z</time>
      </trkpt>
      <trkpt lat="43.09673" lon="5.98605">
        <ele>-1.79</ele>
        <time>2019-05-29T11:10:32Z</time>
      </trkpt>
      <trkpt lat="43.09697" lon="5.98572">
        <ele>-2.27</ele>
        <time>2019-05-29T11:10:44Z</time>
      </trkpt>
      <trkpt lat="43.09719" lon="5.98543">
        <ele>-1.3</ele>
        <time>2019-05-29T11:10:55Z</time>
      </trkpt>
      <trkpt lat="43.09746" lon="5.9851">
        <ele>1.1</ele>
        <time>2019-05-29T11:11:07Z</time>
      </trkpt>
      <trkpt lat="43.09776" lon="5.98476">
        <ele>1.1</ele>
        <time>2019-05-29T11:11:19Z</time>
      </trkpt>
      <trkpt lat="43.09809" lon="5.98438">
        <ele>-0.82</ele>
        <time>2019-05-29T11:11:32Z</time>
      </trkpt>
      <trkpt lat="43.09839" lon="5.98405">
        <ele>-0.82</ele>
        <time>2019-05-29T11:11:44Z</time>
      </trkpt>
      <trkpt lat="43.09873" lon="5.98372">
        <ele>-0.82</ele>
        <time>2019-05-29T11:11:57Z</time>
      </trkpt>
      <trkpt lat="43.09904" lon="5.98339">
        <ele>1.1</ele>
        <time>2019-05-29T11:12:10Z</time>
      </trkpt>
      <trkpt lat="43.09937" lon="5.98309">
        <ele>0.62</ele>
        <time>2019-05-29T11:12:23Z</time>
      </trkpt>
      <trkpt lat="43.09933" lon="5.98297">
        <ele>-0.34</ele>
        <time>2019-05-29T11:12:28Z</time>
      </trkpt>
      <trkpt lat="43.09915" lon="5.98275">
        <ele>-3.23</ele>
        <time>2019-05-29T11:12:41Z</time>
      </trkpt>
      <trkpt lat="43.09895" lon="5.98253">
        <ele>-5.63</ele>
        <time>2019-05-29T11:12:52Z</time>
      </trkpt>
      <trkpt lat="43.09871" lon="5.98223">
        <ele>-4.67</ele>
        <time>2019-05-29T11:13:04Z</time>
      </trkpt>
      <trkpt lat="43.09841" lon="5.98191">
        <ele>-5.15</ele>
        <time>2019-05-29T11:13:16Z</time>
      </trkpt>
      <trkpt lat="43.09811" lon="5.98157">
        <ele>-5.63</ele>
        <time>2019-05-29T11:13:28Z</time>
      </trkpt>
      <trkpt lat="43.09803" lon="5.98149">
        <ele>-4.19</ele>
        <time>2019-05-29T11:13:31Z</time>
      </trkpt>
      <trkpt lat="43.09771" lon="5.98115">
        <ele>-4.19</ele>
        <time>2019-05-29T11:13:43Z</time>
      </trkpt>
      <trkpt lat="43.09748" lon="5.98083">
        <ele>-5.15</ele>
        <time>2019-05-29T11:13:53Z</time>
      </trkpt>
      <trkpt lat="43.09719" lon="5.98051">
        <ele>-3.71</ele>
        <time>2019-05-29T11:14:04Z</time>
      </trkpt>
      <trkpt lat="43.09677" lon="5.97998">
        <ele>-7.07</ele>
        <time>2019-05-29T11:14:20Z</time>
      </trkpt>
      <trkpt lat="43.09649" lon="5.97963">
        <ele>-7.07</ele>
        <time>2019-05-29T11:14:31Z</time>
      </trkpt>
      <trkpt lat="43.09621" lon="5.9793">
        <ele>-6.11</ele>
        <time>2019-05-29T11:14:42Z</time>
      </trkpt>
      <trkpt lat="43.09586" lon="5.97892">
        <ele>-7.07</ele>
        <time>2019-05-29T11:14:54Z</time>
      </trkpt>
      <trkpt lat="43.0957" lon="5.97878">
        <ele>-6.59</ele>
        <time>2019-05-29T11:14:59Z</time>
      </trkpt>
      <trkpt lat="43.09529" lon="5.97836">
        <ele>-4.19</ele>
        <time>2019-05-29T11:15:14Z</time>
      </trkpt>
      <trkpt lat="43.09499" lon="5.97804">
        <ele>-3.71</ele>
        <time>2019-05-29T11:15:25Z</time>
      </trkpt>
      <trkpt lat="43.09471" lon="5.97772">
        <ele>-3.23</ele>
        <time>2019-05-29T11:15:36Z</time>
      </trkpt>
      <trkpt lat="43.09447" lon="5.97737">
        <ele>-2.75</ele>
        <time>2019-05-29T11:15:47Z</time>
      </trkpt>
      <trkpt lat="43.09419" lon="5.977">
        <ele>-3.23</ele>
        <time>2019-05-29T11:15:59Z</time>
      </trkpt>
      <trkpt lat="43.09384" lon="5.97653">
        <ele>-3.71</ele>
        <time>2019-05-29T11:16:14Z</time>
      </trkpt>
      <trkpt lat="43.09352" lon="5.97615">
        <ele>-4.67</ele>
        <time>2019-05-29T11:16:26Z</time>
      </trkpt>
      <trkpt lat="43.09322" lon="5.97569">
        <ele>-6.11</ele>
        <time>2019-05-29T11:16:39Z</time>
      </trkpt>
      <trkpt lat="43.09293" lon="5.97528">
        <ele>-5.63</ele>
        <time>2019-05-29T11:16:51Z</time>
      </trkpt>
      <trkpt lat="43.09266" lon="5.97488">
        <ele>-7.07</ele>
        <time>2019-05-29T11:17:03Z</time>
      </trkpt>
      <trkpt lat="43.09233" lon="5.97441">
        <ele>-6.59</ele>
        <time>2019-05-29T11:17:17Z</time>
      </trkpt>
      <trkpt lat="43.09204" lon="5.97404">
        <ele>-4.19</ele>
        <time>2019-05-29T11:17:29Z</time>
      </trkpt>
      <trkpt lat="43.09172" lon="5.97359">
        <ele>-5.15</ele>
        <time>2019-05-29T11:17:43Z</time>
      </trkpt>
      <trkpt lat="43.09136" lon="5.97316">
        <ele>-3.71</ele>
        <time>2019-05-29T11:17:58Z</time>
      </trkpt>
      <trkpt lat="43.09106" lon="5.97273">
        <ele>-4.19</ele>
        <time>2019-05-29T11:18:11Z</time>
      </trkpt>
      <trkpt lat="43.09073" lon="5.97222">
        <ele>-4.67</ele>
        <time>2019-05-29T11:18:26Z</time>
      </trkpt>
      <trkpt lat="43.09045" lon="5.97183">
        <ele>-4.19</ele>
        <time>2019-05-29T11:18:38Z</time>
      </trkpt>
      <trkpt lat="43.09017" lon="5.97145">
        <ele>-2.75</ele>
        <time>2019-05-29T11:18:50Z</time>
      </trkpt>
      <trkpt lat="43.08984" lon="5.97101">
        <ele>-2.75</ele>
        <time>2019-05-29T11:19:04Z</time>
      </trkpt>
      <trkpt lat="43.08956" lon="5.97064">
        <ele>-3.23</ele>
        <time>2019-05-29T11:19:16Z</time>
      </trkpt>
      <trkpt lat="43.0892" lon="5.97024">
        <ele>-4.19</ele>
        <time>2019-05-29T11:19:30Z</time>
      </trkpt>
      <trkpt lat="43.08893" lon="5.96987">
        <ele>-4.67</ele>
        <time>2019-05-29T11:19:41Z</time>
      </trkpt>
      <trkpt lat="43.08856" lon="5.96938">
        <ele>-3.71</ele>
        <time>2019-05-29T11:19:56Z</time>
      </trkpt>
      <trkpt lat="43.0882" lon="5.96891">
        <ele>-5.15</ele>
        <time>2019-05-29T11:20:10Z</time>
      </trkpt>
      <trkpt lat="43.08789" lon="5.96847">
        <ele>-3.23</ele>
        <time>2019-05-29T11:20:23Z</time>
      </trkpt>
      <trkpt lat="43.08765" lon="5.96808">
        <ele>-2.75</ele>
        <time>2019-05-29T11:20:34Z</time>
      </trkpt>
      <trkpt lat="43.08732" lon="5.96761">
        <ele>-2.27</ele>
        <time>2019-05-29T11:20:48Z</time>
      </trkpt>
      <trkpt lat="43.08704" lon="5.96721">
        <ele>-3.23</ele>
        <time>2019-05-29T11:21:00Z</time>
      </trkpt>
      <trkpt lat="43.08673" lon="5.96686">
        <ele>-6.11</ele>
        <time>2019-05-29T11:21:12Z</time>
      </trkpt>
      <trkpt lat="43.08666" lon="5.9667">
        <ele>-6.59</ele>
        <time>2019-05-29T11:21:16Z</time>
      </trkpt>
      <trkpt lat="43.08679" lon="5.96662">
        <ele>-5.63</ele>
        <time>2019-05-29T11:21:23Z</time>
      </trkpt>
      <trkpt lat="43.08712" lon="5.96637">
        <ele>-3.71</ele>
        <time>2019-05-29T11:21:39Z</time>
      </trkpt>
      <trkpt lat="43.08744" lon="5.96613">
        <ele>-2.75</ele>
        <time>2019-05-29T11:21:52Z</time>
      </trkpt>
      <trkpt lat="43.08777" lon="5.96592">
        <ele>-2.75</ele>
        <time>2019-05-29T11:22:05Z</time>
      </trkpt>
      <trkpt lat="43.0882" lon="5.96566">
        <ele>-2.27</ele>
        <time>2019-05-29T11:22:20Z</time>
      </trkpt>
      <trkpt lat="43.08856" lon="5.96543">
        <ele>-1.79</ele>
        <time>2019-05-29T11:22:33Z</time>
      </trkpt>
      <trkpt lat="43.08885" lon="5.9653">
        <ele>-2.27</ele>
        <time>2019-05-29T11:22:44Z</time>
      </trkpt>
      <trkpt lat="43.0889" lon="5.96524">
        <ele>-2.27</ele>
        <time>2019-05-29T11:22:47Z</time>
      </trkpt>
      <trkpt lat="43.08915" lon="5.9652">
        <ele>-1.3</ele>
        <time>2019-05-29T11:22:57Z</time>
      </trkpt>
      <trkpt lat="43.08947" lon="5.96489">
        <ele>-0.82</ele>
        <time>2019-05-29T11:23:13Z</time>
      </trkpt>
      <trkpt lat="43.08973" lon="5.96457">
        <ele>-1.3</ele>
        <time>2019-05-29T11:23:28Z</time>
      </trkpt>
      <trkpt lat="43.08979" lon="5.96445">
        <ele>-1.79</ele>
        <time>2019-05-29T11:23:33Z</time>
      </trkpt>
      <trkpt lat="43.09007" lon="5.96427">
        <ele>-1.79</ele>
        <time>2019-05-29T11:23:45Z</time>
      </trkpt>
      <trkpt lat="43.09038" lon="5.96396">
        <ele>-1.3</ele>
        <time>2019-05-29T11:23:58Z</time>
      </trkpt>
      <trkpt lat="43.09066" lon="5.96363">
        <ele>-0.34</ele>
        <time>2019-05-29T11:24:11Z</time>
      </trkpt>
      <trkpt lat="43.09092" lon="5.96333">
        <ele>-1.3</ele>
        <time>2019-05-29T11:24:23Z</time>
      </trkpt>
      <trkpt lat="43.09127" lon="5.96297">
        <ele>-2.27</ele>
        <time>2019-05-29T11:24:39Z</time>
      </trkpt>
      <trkpt lat="43.09154" lon="5.96262">
        <ele>-2.27</ele>
        <time>2019-05-29T11:24:53Z</time>
      </trkpt>
      <trkpt lat="43.09182" lon="5.96228">
        <ele>-1.79</ele>
        <time>2019-05-29T11:25:07Z</time>
      </trkpt>
      <trkpt lat="43.09211" lon="5.9619">
        <ele>-2.27</ele>
        <time>2019-05-29T11:25:23Z</time>
      </trkpt>
      <trkpt lat="43.0924" lon="5.96157">
        <ele>-1.79</ele>
        <time>2019-05-29T11:25:37Z</time>
      </trkpt>
      <trkpt lat="43.09276" lon="5.96124">
        <ele>-1.79</ele>
        <time>2019-05-29T11:25:52Z</time>
      </trkpt>
      <trkpt lat="43.09301" lon="5.96101">
        <ele>-1.3</ele>
        <time>2019-05-29T11:26:03Z</time>
      </trkpt>
      <trkpt lat="43.09332" lon="5.96075">
        <ele>-1.79</ele>
        <time>2019-05-29T11:26:15Z</time>
      </trkpt>
      <trkpt lat="43.09366" lon="5.96047">
        <ele>-1.79</ele>
        <time>2019-05-29T11:26:28Z</time>
      </trkpt>
      <trkpt lat="43.09396" lon="5.96022">
        <ele>-2.27</ele>
        <time>2019-05-29T11:26:40Z</time>
      </trkpt>
      <trkpt lat="43.09424" lon="5.96">
        <ele>-1.79</ele>
        <time>2019-05-29T11:26:51Z</time>
      </trkpt>
      <trkpt lat="43.09451" lon="5.95977">
        <ele>-3.23</ele>
        <time>2019-05-29T11:27:02Z</time>
      </trkpt>
      <trkpt lat="43.09486" lon="5.95951">
        <ele>-2.75</ele>
        <time>2019-05-29T11:27:15Z</time>
      </trkpt>
      <trkpt lat="43.09515" lon="5.9593">
        <ele>-3.71</ele>
        <time>2019-05-29T11:27:25Z</time>
      </trkpt>
      <trkpt lat="43.09551" lon="5.95905">
        <ele>-2.75</ele>
        <time>2019-05-29T11:27:37Z</time>
      </trkpt>
      <trkpt lat="43.09584" lon="5.95882">
        <ele>-2.75</ele>
        <time>2019-05-29T11:27:48Z</time>
      </trkpt>
      <trkpt lat="43.09621" lon="5.95859">
        <ele>-3.71</ele>
        <time>2019-05-29T11:28:00Z</time>
      </trkpt>
      <trkpt lat="43.09663" lon="5.95832">
        <ele>-4.19</ele>
        <time>2019-05-29T11:28:13Z</time>
      </trkpt>
      <trkpt lat="43.09701" lon="5.95808">
        <ele>-3.71</ele>
        <time>2019-05-29T11:28:25Z</time>
      </trkpt>
      <trkpt lat="43.09737" lon="5.95788">
        <ele>-4.19</ele>
        <time>2019-05-29T11:28:36Z</time>
      </trkpt>
      <trkpt lat="43.09767" lon="5.95769">
        <ele>-3.23</ele>
        <time>2019-05-29T11:28:46Z</time>
      </trkpt>
      <trkpt lat="43.09769" lon="5.95766">
        <ele>-3.23</ele>
        <time>2019-05-29T11:28:47Z</time>
      </trkpt>
      <trkpt lat="43.09756" lon="5.95749">
        <ele>-3.71</ele>
        <time>2019-05-29T11:28:56Z</time>
      </trkpt>
      <trkpt lat="43.09753" lon="5.95745">
        <ele>-4.19</ele>
        <time>2019-05-29T11:28:58Z</time>
      </trkpt>
      <trkpt lat="43.0973" lon="5.95718">
        <ele>-7.55</ele>
        <time>2019-05-29T11:29:10Z</time>
      </trkpt>
      <trkpt lat="43.09724" lon="5.9571">
        <ele>-7.55</ele>
        <time>2019-05-29T11:29:13Z</time>
      </trkpt>
      <trkpt lat="43.09694" lon="5.95675">
        <ele>-8.03</ele>
        <time>2019-05-29T11:29:27Z</time>
      </trkpt>
      <trkpt lat="43.09669" lon="5.95642">
        <ele>-7.07</ele>
        <time>2019-05-29T11:29:40Z</time>
      </trkpt>
      <trkpt lat="43.09641" lon="5.95616">
        <ele>-8.03</ele>
        <time>2019-05-29T11:29:51Z</time>
      </trkpt>
      <trkpt lat="43.09638" lon="5.95614">
        <ele>-8.51</ele>
        <time>2019-05-29T11:29:52Z</time>
      </trkpt>
      <trkpt lat="43.09596" lon="5.95586">
        <ele>-6.11</ele>
        <time>2019-05-29T11:30:05Z</time>
      </trkpt>
      <trkpt lat="43.09592" lon="5.95584">
        <ele>-6.11</ele>
        <time>2019-05-29T11:30:06Z</time>
      </trkpt>
      <trkpt lat="43.09553" lon="5.95552">
        <ele>-6.11</ele>
        <time>2019-05-29T11:30:19Z</time>
      </trkpt>
      <trkpt lat="43.09518" lon="5.95518">
        <ele>-8.51</ele>
        <time>2019-05-29T11:30:31Z</time>
      </trkpt>
      <trkpt lat="43.09482" lon="5.95484">
        <ele>-7.07</ele>
        <time>2019-05-29T11:30:44Z</time>
      </trkpt>
      <trkpt lat="43.09449" lon="5.95456">
        <ele>-8.51</ele>
        <time>2019-05-29T11:30:55Z</time>
      </trkpt>
      <trkpt lat="43.09404" lon="5.95418">
        <ele>-6.59</ele>
        <time>2019-05-29T11:31:10Z</time>
      </trkpt>
      <trkpt lat="43.09358" lon="5.95386">
        <ele>-6.11</ele>
        <time>2019-05-29T11:31:24Z</time>
      </trkpt>
      <trkpt lat="43.0934" lon="5.95369">
        <ele>-7.07</ele>
        <time>2019-05-29T11:31:30Z</time>
      </trkpt>
      <trkpt lat="43.09329" lon="5.95346">
        <ele>-6.11</ele>
        <time>2019-05-29T11:31:38Z</time>
      </trkpt>
      <trkpt lat="43.09334" lon="5.95345">
        <ele>-6.11</ele>
        <time>2019-05-29T11:31:40Z</time>
      </trkpt>
      <trkpt lat="43.09363" lon="5.95329">
        <ele>-4.67</ele>
        <time>2019-05-29T11:31:54Z</time>
      </trkpt>
      <trkpt lat="43.09389" lon="5.95307">
        <ele>-4.19</ele>
        <time>2019-05-29T11:32:06Z</time>
      </trkpt>
      <trkpt lat="43.09422" lon="5.95277">
        <ele>-5.15</ele>
        <time>2019-05-29T11:32:20Z</time>
      </trkpt>
      <trkpt lat="43.09458" lon="5.95243">
        <ele>-4.19</ele>
        <time>2019-05-29T11:32:34Z</time>
      </trkpt>
      <trkpt lat="43.09485" lon="5.9522">
        <ele>-2.75</ele>
        <time>2019-05-29T11:32:44Z</time>
      </trkpt>
      <trkpt lat="43.09526" lon="5.95188">
        <ele>-2.27</ele>
        <time>2019-05-29T11:32:58Z</time>
      </trkpt>
      <trkpt lat="43.09557" lon="5.95163">
        <ele>-2.27</ele>
        <time>2019-05-29T11:33:09Z</time>
      </trkpt>
      <trkpt lat="43.09587" lon="5.95134">
        <ele>-4.19</ele>
        <time>2019-05-29T11:33:21Z</time>
      </trkpt>
      <trkpt lat="43.09615" lon="5.95112">
        <ele>-3.71</ele>
        <time>2019-05-29T11:33:32Z</time>
      </trkpt>
      <trkpt lat="43.09649" lon="5.95081">
        <ele>-2.27</ele>
        <time>2019-05-29T11:33:46Z</time>
      </trkpt>
      <trkpt lat="43.09679" lon="5.95051">
        <ele>-2.75</ele>
        <time>2019-05-29T11:33:59Z</time>
      </trkpt>
      <trkpt lat="43.09716" lon="5.95011">
        <ele>-3.71</ele>
        <time>2019-05-29T11:34:14Z</time>
      </trkpt>
      <trkpt lat="43.09754" lon="5.94975">
        <ele>-3.71</ele>
        <time>2019-05-29T11:34:29Z</time>
      </trkpt>
      <trkpt lat="43.09782" lon="5.94943">
        <ele>-4.19</ele>
        <time>2019-05-29T11:34:41Z</time>
      </trkpt>
      <trkpt lat="43.09818" lon="5.94914">
        <ele>-3.71</ele>
        <time>2019-05-29T11:34:54Z</time>
      </trkpt>
      <trkpt lat="43.09864" lon="5.94875">
        <ele>-2.75</ele>
        <time>2019-05-29T11:35:10Z</time>
      </trkpt>
      <trkpt lat="43.09897" lon="5.94849">
        <ele>-4.19</ele>
        <time>2019-05-29T11:35:22Z</time>
      </trkpt>
      <trkpt lat="43.09935" lon="5.94823">
        <ele>-4.19</ele>
        <time>2019-05-29T11:35:35Z</time>
      </trkpt>
      <trkpt lat="43.09949" lon="5.94804">
        <ele>-3.23</ele>
        <time>2019-05-29T11:35:46Z</time>
      </trkpt>
      <trkpt lat="43.09948" lon="5.94799">
        <ele>-3.23</ele>
        <time>2019-05-29T11:35:50Z</time>
      </trkpt>
      <trkpt lat="43.09952" lon="5.94795">
        <ele>-3.23</ele>
        <time>2019-05-29T11:35:54Z</time>
      </trkpt>
      <trkpt lat="43.09985" lon="5.9478">
        <ele>-1.79</ele>
        <time>2019-05-29T11:36:06Z</time>
      </trkpt>
      <trkpt lat="43.10044" lon="5.94763">
        <ele>-1.3</ele>
        <time>2019-05-29T11:36:22Z</time>
      </trkpt>
      <trkpt lat="43.10091" lon="5.94735">
        <ele>-0.82</ele>
        <time>2019-05-29T11:36:37Z</time>
      </trkpt>
      <trkpt lat="43.10125" lon="5.94704">
        <ele>-0.82</ele>
        <time>2019-05-29T11:36:51Z</time>
      </trkpt>
      <trkpt lat="43.10142" lon="5.9469">
        <ele>-1.3</ele>
        <time>2019-05-29T11:36:57Z</time>
      </trkpt>
      <trkpt lat="43.10159" lon="5.94703">
        <ele>-1.3</ele>
        <time>2019-05-29T11:37:02Z</time>
      </trkpt>
      <trkpt lat="43.10205" lon="5.94784">
        <ele>-0.82</ele>
        <time>2019-05-29T11:37:21Z</time>
      </trkpt>
      <trkpt lat="43.10232" lon="5.94863">
        <ele>0.62</ele>
        <time>2019-05-29T11:37:38Z</time>
      </trkpt>
      <trkpt lat="43.10249" lon="5.94926">
        <ele>-0.34</ele>
        <time>2019-05-29T11:37:52Z</time>
      </trkpt>
      <trkpt lat="43.10262" lon="5.95015">
        <ele>-0.34</ele>
        <time>2019-05-29T11:38:11Z</time>
      </trkpt>
      <trkpt lat="43.1029" lon="5.95041">
        <ele>-0.82</ele>
        <time>2019-05-29T11:38:22Z</time>
      </trkpt>
      <trkpt lat="43.10317" lon="5.9502">
        <ele>-2.27</ele>
        <time>2019-05-29T11:38:36Z</time>
      </trkpt>
      <trkpt lat="43.10321" lon="5.94999">
        <ele>-3.23</ele>
        <time>2019-05-29T11:38:52Z</time>
      </trkpt>
      <trkpt lat="43.10324" lon="5.94995">
        <ele>-2.75</ele>
        <time>2019-05-29T11:39:09Z</time>
      </trkpt>
      <trkpt lat="43.10325" lon="5.94996">
        <ele>-2.75</ele>
        <time>2019-05-29T11:39:10Z</time>
      </trkpt>
      <trkpt lat="43.10342" lon="5.94991">
        <ele>-3.71</ele>
        <time>2019-05-29T11:39:26Z</time>
      </trkpt>
      <trkpt lat="43.10347" lon="5.94981">
        <ele>-3.71</ele>
        <time>2019-05-29T11:39:46Z</time>
      </trkpt>
      <trkpt lat="43.10346" lon="5.94979">
        <ele>-3.71</ele>
        <time>2019-05-29T11:39:47Z</time>
      </trkpt>
      <trkpt lat="43.10327" lon="5.9495">
        <ele>-5.15</ele>
        <time>2019-05-29T11:40:04Z</time>
      </trkpt>
      <trkpt lat="43.10314" lon="5.9492">
        <ele>-5.63</ele>
        <time>2019-05-29T11:40:18Z</time>
      </trkpt>
      <trkpt lat="43.10306" lon="5.94895">
        <ele>-8.51</ele>
        <time>2019-05-29T11:40:34Z</time>
      </trkpt>
      <trkpt lat="43.10297" lon="5.94878">
        <ele>-11.88</ele>
        <time>2019-05-29T11:40:49Z</time>
      </trkpt>
      <trkpt lat="43.10288" lon="5.94866">
        <ele>-13.8</ele>
        <time>2019-05-29T11:41:04Z</time>
      </trkpt>
      <trkpt lat="43.10286" lon="5.94865">
        <ele>-12.84</ele>
        <time>2019-05-29T11:41:07Z</time>
      </trkpt>
      <trkpt lat="43.10283" lon="5.94863">
        <ele>-11.4</ele>
        <time>2019-05-29T11:41:11Z</time>
      </trkpt>
      <trkpt lat="43.10265" lon="5.94846">
        <ele>-8.03</ele>
        <time>2019-05-29T11:41:35Z</time>
      </trkpt>
      <trkpt lat="43.10256" lon="5.94835">
        <ele>-6.59</ele>
        <time>2019-05-29T11:41:52Z</time>
      </trkpt>
      <trkpt lat="43.10237" lon="5.94819">
        <ele>-8.03</ele>
        <time>2019-05-29T11:42:09Z</time>
      </trkpt>
      <trkpt lat="43.10224" lon="5.948">
        <ele>-7.55</ele>
        <time>2019-05-29T11:42:25Z</time>
      </trkpt>
      <trkpt lat="43.10208" lon="5.94772">
        <ele>-7.55</ele>
        <time>2019-05-29T11:42:45Z</time>
      </trkpt>
      <trkpt lat="43.10198" lon="5.94749">
        <ele>-7.07</ele>
        <time>2019-05-29T11:42:59Z</time>
      </trkpt>
      <trkpt lat="43.10196" lon="5.94745">
        <ele>-6.59</ele>
        <time>2019-05-29T11:43:02Z</time>
      </trkpt>
      <trkpt lat="43.10194" lon="5.94742">
        <ele>-5.15</ele>
        <time>2019-05-29T11:43:04Z</time>
      </trkpt>
      <trkpt lat="43.1019" lon="5.94734">
        <ele>-4.19</ele>
        <time>2019-05-29T11:43:10Z</time>
      </trkpt>
      <trkpt lat="43.10185" lon="5.94723">
        <ele>-4.67</ele>
        <time>2019-05-29T11:43:16Z</time>
      </trkpt>
      <trkpt lat="43.10171" lon="5.94688">
        <ele>-4.67</ele>
        <time>2019-05-29T11:43:35Z</time>
      </trkpt>
      <trkpt lat="43.10156" lon="5.94668">
        <ele>-5.15</ele>
        <time>2019-05-29T11:43:52Z</time>
      </trkpt>
      <trkpt lat="43.10139" lon="5.9464">
        <ele>-4.67</ele>
        <time>2019-05-29T11:44:08Z</time>
      </trkpt>
      <trkpt lat="43.10133" lon="5.94631">
        <ele>-4.19</ele>
        <time>2019-05-29T11:44:14Z</time>
      </trkpt>
      <trkpt lat="43.10126" lon="5.94618">
        <ele>-4.19</ele>
        <time>2019-05-29T11:44:23Z</time>
      </trkpt>
      <trkpt lat="43.10114" lon="5.94596">
        <ele>-4.19</ele>
        <time>2019-05-29T11:44:38Z</time>
      </trkpt>
      <trkpt lat="43.10108" lon="5.94587">
        <ele>-4.19</ele>
        <time>2019-05-29T11:44:44Z</time>
      </trkpt>
      <trkpt lat="43.10103" lon="5.94579">
        <ele>-4.19</ele>
        <time>2019-05-29T11:44:50Z</time>
      </trkpt>
      <trkpt lat="43.10101" lon="5.94575">
        <ele>-5.15</ele>
        <time>2019-05-29T11:44:53Z</time>
      </trkpt>
      <trkpt lat="43.10085" lon="5.9455">
        <ele>-5.63</ele>
        <time>2019-05-29T11:45:08Z</time>
      </trkpt>
      <trkpt lat="43.10076" lon="5.94529">
        <ele>-4.19</ele>
        <time>2019-05-29T11:45:21Z</time>
      </trkpt>
      <trkpt lat="43.10074" lon="5.94525">
        <ele>-4.19</ele>
        <time>2019-05-29T11:45:24Z</time>
      </trkpt>
      <trkpt lat="43.10069" lon="5.94516">
        <ele>-4.67</ele>
        <time>2019-05-29T11:45:30Z</time>
      </trkpt>
      <trkpt lat="43.10048" lon="5.94487">
        <ele>-4.67</ele>
        <time>2019-05-29T11:45:50Z</time>
      </trkpt>
      <trkpt lat="43.10027" lon="5.94457">
        <ele>-4.19</ele>
        <time>2019-05-29T11:46:07Z</time>
      </trkpt>
      <trkpt lat="43.10014" lon="5.94431">
        <ele>-3.71</ele>
        <time>2019-05-29T11:46:22Z</time>
      </trkpt>
      <trkpt lat="43.10004" lon="5.94413">
        <ele>-4.67</ele>
        <time>2019-05-29T11:46:38Z</time>
      </trkpt>
      <trkpt lat="43.10003" lon="5.94412">
        <ele>-5.15</ele>
        <time>2019-05-29T11:46:39Z</time>
      </trkpt>
      <trkpt lat="43.10001" lon="5.94403">
        <ele>-5.15</ele>
        <time>2019-05-29T11:46:44Z</time>
      </trkpt>
      <trkpt lat="43.09987" lon="5.94378">
        <ele>-2.75</ele>
        <time>2019-05-29T11:46:56Z</time>
      </trkpt>
      <trkpt lat="43.09983" lon="5.94365">
        <ele>-3.23</ele>
        <time>2019-05-29T11:47:02Z</time>
      </trkpt>
      <trkpt lat="43.09962" lon="5.94337">
        <ele>-2.27</ele>
        <time>2019-05-29T11:47:21Z</time>
      </trkpt>
      <trkpt lat="43.09946" lon="5.94313">
        <ele>-2.75</ele>
        <time>2019-05-29T11:47:35Z</time>
      </trkpt>
      <trkpt lat="43.09925" lon="5.94282">
        <ele>-0.82</ele>
        <time>2019-05-29T11:47:58Z</time>
      </trkpt>
      <trkpt lat="43.09914" lon="5.94265">
        <ele>-3.71</ele>
        <time>2019-05-29T11:48:10Z</time>
      </trkpt>
      <trkpt lat="43.0991" lon="5.9426">
        <ele>-4.19</ele>
        <time>2019-05-29T11:48:16Z</time>
      </trkpt>
      <trkpt lat="43.09889" lon="5.94245">
        <ele>-5.15</ele>
        <time>2019-05-29T11:48:32Z</time>
      </trkpt>
      <trkpt lat="43.09878" lon="5.9423">
        <ele>-5.15</ele>
        <time>2019-05-29T11:48:42Z</time>
      </trkpt>
      <trkpt lat="43.09862" lon="5.94214">
        <ele>-4.67</ele>
        <time>2019-05-29T11:48:56Z</time>
      </trkpt>
      <trkpt lat="43.09841" lon="5.94192">
        <ele>-5.15</ele>
        <time>2019-05-29T11:49:12Z</time>
      </trkpt>
      <trkpt lat="43.09823" lon="5.94172">
        <ele>-6.59</ele>
        <time>2019-05-29T11:49:26Z</time>
      </trkpt>
      <trkpt lat="43.09801" lon="5.94149">
        <ele>-6.11</ele>
        <time>2019-05-29T11:49:43Z</time>
      </trkpt>
      <trkpt lat="43.09778" lon="5.94127">
        <ele>-6.11</ele>
        <time>2019-05-29T11:49:59Z</time>
      </trkpt>
      <trkpt lat="43.0976" lon="5.94105">
        <ele>-3.71</ele>
        <time>2019-05-29T11:50:12Z</time>
      </trkpt>
      <trkpt lat="43.09741" lon="5.94079">
        <ele>-6.59</ele>
        <time>2019-05-29T11:50:25Z</time>
      </trkpt>
      <trkpt lat="43.09727" lon="5.94056">
        <ele>-6.59</ele>
        <time>2019-05-29T11:50:38Z</time>
      </trkpt>
      <trkpt lat="43.09707" lon="5.94028">
        <ele>-6.59</ele>
        <time>2019-05-29T11:50:54Z</time>
      </trkpt>
      <trkpt lat="43.09686" lon="5.93994">
        <ele>-6.59</ele>
        <time>2019-05-29T11:51:11Z</time>
      </trkpt>
      <trkpt lat="43.09672" lon="5.9397">
        <ele>-5.63</ele>
        <time>2019-05-29T11:51:24Z</time>
      </trkpt>
      <trkpt lat="43.09657" lon="5.93945">
        <ele>-5.63</ele>
        <time>2019-05-29T11:51:39Z</time>
      </trkpt>
      <trkpt lat="43.09643" lon="5.93919">
        <ele>-6.11</ele>
        <time>2019-05-29T11:51:54Z</time>
      </trkpt>
      <trkpt lat="43.09631" lon="5.93899">
        <ele>-4.67</ele>
        <time>2019-05-29T11:52:09Z</time>
      </trkpt>
      <trkpt lat="43.09615" lon="5.93876">
        <ele>-5.63</ele>
        <time>2019-05-29T11:52:29Z</time>
      </trkpt>
      <trkpt lat="43.09601" lon="5.93854">
        <ele>-5.15</ele>
        <time>2019-05-29T11:52:45Z</time>
      </trkpt>
      <trkpt lat="43.09585" lon="5.93826">
        <ele>-4.67</ele>
        <time>2019-05-29T11:53:03Z</time>
      </trkpt>
      <trkpt lat="43.09579" lon="5.93814">
        <ele>-5.15</ele>
        <time>2019-05-29T11:53:10Z</time>
      </trkpt>
      <trkpt lat="43.0957" lon="5.93793">
        <ele>-4.67</ele>
        <time>2019-05-29T11:53:21Z</time>
      </trkpt>
      <trkpt lat="43.09558" lon="5.93767">
        <ele>-3.71</ele>
        <time>2019-05-29T11:53:37Z</time>
      </trkpt>
      <trkpt lat="43.09553" lon="5.93749">
        <ele>-3.71</ele>
        <time>2019-05-29T11:53:54Z</time>
      </trkpt>
      <trkpt lat="43.09551" lon="5.93746">
        <ele>-3.71</ele>
        <time>2019-05-29T11:53:58Z</time>
      </trkpt>
      <trkpt lat="43.09544" lon="5.93739">
        <ele>-4.19</ele>
        <time>2019-05-29T11:54:07Z</time>
      </trkpt>
      <trkpt lat="43.09541" lon="5.93737">
        <ele>-4.19</ele>
        <time>2019-05-29T11:54:11Z</time>
      </trkpt>
      <trkpt lat="43.09535" lon="5.93731">
        <ele>-5.15</ele>
        <time>2019-05-29T11:54:16Z</time>
      </trkpt>
      <trkpt lat="43.09513" lon="5.93706">
        <ele>-5.15</ele>
        <time>2019-05-29T11:54:32Z</time>
      </trkpt>
      <trkpt lat="43.09496" lon="5.93729">
        <ele>-3.71</ele>
        <time>2019-05-29T11:54:44Z</time>
      </trkpt>
      <trkpt lat="43.09486" lon="5.93786">
        <ele>-2.75</ele>
        <time>2019-05-29T11:55:03Z</time>
      </trkpt>
      <trkpt lat="43.09487" lon="5.9385">
        <ele>-2.27</ele>
        <time>2019-05-29T11:55:22Z</time>
      </trkpt>
      <trkpt lat="43.09503" lon="5.9392">
        <ele>-3.23</ele>
        <time>2019-05-29T11:55:42Z</time>
      </trkpt>
      <trkpt lat="43.09523" lon="5.93982">
        <ele>-3.71</ele>
        <time>2019-05-29T11:56:01Z</time>
      </trkpt>
      <trkpt lat="43.09555" lon="5.94044">
        <ele>-3.23</ele>
        <time>2019-05-29T11:56:22Z</time>
      </trkpt>
      <trkpt lat="43.09583" lon="5.94097">
        <ele>-3.23</ele>
        <time>2019-05-29T11:56:39Z</time>
      </trkpt>
      <trkpt lat="43.09611" lon="5.94165">
        <ele>-3.23</ele>
        <time>2019-05-29T11:56:59Z</time>
      </trkpt>
      <trkpt lat="43.09639" lon="5.94238">
        <ele>-3.23</ele>
        <time>2019-05-29T11:57:20Z</time>
      </trkpt>
      <trkpt lat="43.09667" lon="5.94308">
        <ele>-3.71</ele>
        <time>2019-05-29T11:57:42Z</time>
      </trkpt>
      <trkpt lat="43.09698" lon="5.9438">
        <ele>-3.71</ele>
        <time>2019-05-29T11:58:06Z</time>
      </trkpt>
      <trkpt lat="43.09724" lon="5.94437">
        <ele>-4.67</ele>
        <time>2019-05-29T11:58:26Z</time>
      </trkpt>
      <trkpt lat="43.09753" lon="5.94505">
        <ele>-4.19</ele>
        <time>2019-05-29T11:58:50Z</time>
      </trkpt>
      <trkpt lat="43.09782" lon="5.94567">
        <ele>-4.19</ele>
        <time>2019-05-29T11:59:10Z</time>
      </trkpt>
      <trkpt lat="43.09812" lon="5.94627">
        <ele>-3.71</ele>
        <time>2019-05-29T11:59:29Z</time>
      </trkpt>
      <trkpt lat="43.09832" lon="5.94687">
        <ele>-2.75</ele>
        <time>2019-05-29T11:59:46Z</time>
      </trkpt>
      <trkpt lat="43.09834" lon="5.94749">
        <ele>-2.27</ele>
        <time>2019-05-29T12:00:01Z</time>
      </trkpt>
      <trkpt lat="43.09811" lon="5.94762">
        <ele>-2.75</ele>
        <time>2019-05-29T12:00:11Z</time>
      </trkpt>
      <trkpt lat="43.09807" lon="5.94752">
        <ele>-2.75</ele>
        <time>2019-05-29T12:00:16Z</time>
      </trkpt>
      <trkpt lat="43.09783" lon="5.94725">
        <ele>-2.27</ele>
        <time>2019-05-29T12:00:30Z</time>
      </trkpt>
      <trkpt lat="43.09775" lon="5.947">
        <ele>-1.79</ele>
        <time>2019-05-29T12:00:43Z</time>
      </trkpt>
      <trkpt lat="43.09763" lon="5.94679">
        <ele>-3.23</ele>
        <time>2019-05-29T12:00:58Z</time>
      </trkpt>
      <trkpt lat="43.09756" lon="5.94664">
        <ele>-3.23</ele>
        <time>2019-05-29T12:01:07Z</time>
      </trkpt>
      <trkpt lat="43.09747" lon="5.94649">
        <ele>-2.75</ele>
        <time>2019-05-29T12:01:20Z</time>
      </trkpt>
      <trkpt lat="43.09741" lon="5.9464">
        <ele>-3.23</ele>
        <time>2019-05-29T12:01:29Z</time>
      </trkpt>
      <trkpt lat="43.0973" lon="5.94624">
        <ele>-4.19</ele>
        <time>2019-05-29T12:01:41Z</time>
      </trkpt>
      <trkpt lat="43.09725" lon="5.94616">
        <ele>-4.19</ele>
        <time>2019-05-29T12:01:47Z</time>
      </trkpt>
      <trkpt lat="43.09719" lon="5.94604">
        <ele>-4.19</ele>
        <time>2019-05-29T12:01:55Z</time>
      </trkpt>
      <trkpt lat="43.09709" lon="5.94586">
        <ele>-3.23</ele>
        <time>2019-05-29T12:02:09Z</time>
      </trkpt>
      <trkpt lat="43.09707" lon="5.9457">
        <ele>-3.23</ele>
        <time>2019-05-29T12:02:23Z</time>
      </trkpt>
      <trkpt lat="43.09712" lon="5.94566">
        <ele>-3.71</ele>
        <time>2019-05-29T12:02:28Z</time>
      </trkpt>
      <trkpt lat="43.09735" lon="5.94564">
        <ele>-4.67</ele>
        <time>2019-05-29T12:02:40Z</time>
      </trkpt>
      <trkpt lat="43.09759" lon="5.946">
        <ele>-4.19</ele>
        <time>2019-05-29T12:02:54Z</time>
      </trkpt>
      <trkpt lat="43.09777" lon="5.94644">
        <ele>-2.27</ele>
        <time>2019-05-29T12:03:08Z</time>
      </trkpt>
      <trkpt lat="43.09802" lon="5.94689">
        <ele>-2.27</ele>
        <time>2019-05-29T12:03:24Z</time>
      </trkpt>
      <trkpt lat="43.0983" lon="5.94728">
        <ele>-1.79</ele>
        <time>2019-05-29T12:03:40Z</time>
      </trkpt>
      <trkpt lat="43.09846" lon="5.94777">
        <ele>-1.3</ele>
        <time>2019-05-29T12:03:56Z</time>
      </trkpt>
      <trkpt lat="43.09869" lon="5.94838">
        <ele>-1.3</ele>
        <time>2019-05-29T12:04:17Z</time>
      </trkpt>
      <trkpt lat="43.09899" lon="5.94878">
        <ele>-2.27</ele>
        <time>2019-05-29T12:04:34Z</time>
      </trkpt>
      <trkpt lat="43.09928" lon="5.94907">
        <ele>-2.27</ele>
        <time>2019-05-29T12:04:48Z</time>
      </trkpt>
      <trkpt lat="43.09966" lon="5.94937">
        <ele>-2.27</ele>
        <time>2019-05-29T12:05:05Z</time>
      </trkpt>
      <trkpt lat="43.10006" lon="5.94959">
        <ele>-3.23</ele>
        <time>2019-05-29T12:05:21Z</time>
      </trkpt>
      <trkpt lat="43.10044" lon="5.9497">
        <ele>-1.79</ele>
        <time>2019-05-29T12:05:35Z</time>
      </trkpt>
      <trkpt lat="43.1008" lon="5.95008">
        <ele>-1.79</ele>
        <time>2019-05-29T12:05:51Z</time>
      </trkpt>
      <trkpt lat="43.10107" lon="5.9505">
        <ele>-2.27</ele>
        <time>2019-05-29T12:06:06Z</time>
      </trkpt>
      <trkpt lat="43.10143" lon="5.95084">
        <ele>-0.82</ele>
        <time>2019-05-29T12:06:23Z</time>
      </trkpt>
      <trkpt lat="43.10177" lon="5.95103">
        <ele>-1.3</ele>
        <time>2019-05-29T12:06:37Z</time>
      </trkpt>
      <trkpt lat="43.10211" lon="5.95118">
        <ele>-2.75</ele>
        <time>2019-05-29T12:06:50Z</time>
      </trkpt>
      <trkpt lat="43.10245" lon="5.95182">
        <ele>-3.23</ele>
        <time>2019-05-29T12:07:09Z</time>
      </trkpt>
      <trkpt lat="43.10262" lon="5.95252">
        <ele>-3.23</ele>
        <time>2019-05-29T12:07:27Z</time>
      </trkpt>
      <trkpt lat="43.10272" lon="5.9533">
        <ele>-3.23</ele>
        <time>2019-05-29T12:07:49Z</time>
      </trkpt>
      <trkpt lat="43.10283" lon="5.95388">
        <ele>-3.71</ele>
        <time>2019-05-29T12:08:07Z</time>
      </trkpt>
      <trkpt lat="43.1031" lon="5.95459">
        <ele>-3.23</ele>
        <time>2019-05-29T12:08:28Z</time>
      </trkpt>
      <trkpt lat="43.1034" lon="5.95515">
        <ele>-3.23</ele>
        <time>2019-05-29T12:08:45Z</time>
      </trkpt>
      <trkpt lat="43.10346" lon="5.95574">
        <ele>-2.75</ele>
        <time>2019-05-29T12:09:00Z</time>
      </trkpt>
      <trkpt lat="43.10331" lon="5.95627">
        <ele>-2.27</ele>
        <time>2019-05-29T12:09:14Z</time>
      </trkpt>
      <trkpt lat="43.1031" lon="5.95627">
        <ele>-4.19</ele>
        <time>2019-05-29T12:09:23Z</time>
      </trkpt>
      <trkpt lat="43.10301" lon="5.95609">
        <ele>-5.63</ele>
        <time>2019-05-29T12:09:33Z</time>
      </trkpt>
      <trkpt lat="43.10294" lon="5.95599">
        <ele>-4.19</ele>
        <time>2019-05-29T12:09:43Z</time>
      </trkpt>
      <trkpt lat="43.10284" lon="5.95587">
        <ele>-4.19</ele>
        <time>2019-05-29T12:09:58Z</time>
      </trkpt>
      <trkpt lat="43.10273" lon="5.95582">
        <ele>-3.23</ele>
        <time>2019-05-29T12:10:14Z</time>
      </trkpt>
      <trkpt lat="43.10265" lon="5.9558">
        <ele>-5.63</ele>
        <time>2019-05-29T12:10:32Z</time>
      </trkpt>
      <trkpt lat="43.10264" lon="5.9558">
        <ele>-5.15</ele>
        <time>2019-05-29T12:10:33Z</time>
      </trkpt>
      <trkpt lat="43.10257" lon="5.9558">
        <ele>-4.67</ele>
        <time>2019-05-29T12:10:41Z</time>
      </trkpt>
      <trkpt lat="43.10246" lon="5.95574">
        <ele>-3.71</ele>
        <time>2019-05-29T12:10:57Z</time>
      </trkpt>
      <trkpt lat="43.10243" lon="5.95572">
        <ele>-3.71</ele>
        <time>2019-05-29T12:11:09Z</time>
      </trkpt>
      <trkpt lat="43.10241" lon="5.95572">
        <ele>-3.71</ele>
        <time>2019-05-29T12:11:22Z</time>
      </trkpt>
      <trkpt lat="43.10225" lon="5.95566">
        <ele>-3.71</ele>
        <time>2019-05-29T12:11:32Z</time>
      </trkpt>
      <trkpt lat="43.10225" lon="5.95555">
        <ele>-0.82</ele>
        <time>2019-05-29T12:11:37Z</time>
      </trkpt>
      <trkpt lat="43.10226" lon="5.95533">
        <ele>-1.3</ele>
        <time>2019-05-29T12:11:53Z</time>
      </trkpt>
      <trkpt lat="43.10224" lon="5.95523">
        <ele>-2.75</ele>
        <time>2019-05-29T12:12:08Z</time>
      </trkpt>
      <trkpt lat="43.10219" lon="5.9552">
        <ele>-4.19</ele>
        <time>2019-05-29T12:12:18Z</time>
      </trkpt>
      <trkpt lat="43.10214" lon="5.9552">
        <ele>-5.63</ele>
        <time>2019-05-29T12:12:22Z</time>
      </trkpt>
      <trkpt lat="43.10212" lon="5.95518">
        <ele>-5.63</ele>
        <time>2019-05-29T12:12:24Z</time>
      </trkpt>
      <trkpt lat="43.10206" lon="5.95501">
        <ele>-4.67</ele>
        <time>2019-05-29T12:12:40Z</time>
      </trkpt>
      <trkpt lat="43.10204" lon="5.95493">
        <ele>-3.71</ele>
        <time>2019-05-29T12:12:49Z</time>
      </trkpt>
      <trkpt lat="43.102" lon="5.95486">
        <ele>-3.71</ele>
        <time>2019-05-29T12:13:03Z</time>
      </trkpt>
      <trkpt lat="43.10196" lon="5.95482">
        <ele>-4.19</ele>
        <time>2019-05-29T12:13:14Z</time>
      </trkpt>
      <trkpt lat="43.10185" lon="5.9548">
        <ele>-3.23</ele>
        <time>2019-05-29T12:13:30Z</time>
      </trkpt>
      <trkpt lat="43.10173" lon="5.95479">
        <ele>-4.67</ele>
        <time>2019-05-29T12:13:43Z</time>
      </trkpt>
      <trkpt lat="43.10157" lon="5.95465">
        <ele>-3.23</ele>
        <time>2019-05-29T12:13:57Z</time>
      </trkpt>
      <trkpt lat="43.10161" lon="5.95438">
        <ele>-1.3</ele>
        <time>2019-05-29T12:14:10Z</time>
      </trkpt>
      <trkpt lat="43.10169" lon="5.95398">
        <ele>-3.71</ele>
        <time>2019-05-29T12:14:26Z</time>
      </trkpt>
      <trkpt lat="43.10176" lon="5.95362">
        <ele>-3.23</ele>
        <time>2019-05-29T12:14:40Z</time>
      </trkpt>
      <trkpt lat="43.10185" lon="5.95328">
        <ele>-2.75</ele>
        <time>2019-05-29T12:14:57Z</time>
      </trkpt>
      <trkpt lat="43.10187" lon="5.95321">
        <ele>-2.75</ele>
        <time>2019-05-29T12:15:02Z</time>
      </trkpt>
      <trkpt lat="43.10188" lon="5.95314">
        <ele>-2.27</ele>
        <time>2019-05-29T12:15:06Z</time>
      </trkpt>
      <trkpt lat="43.10194" lon="5.95292">
        <ele>-2.75</ele>
        <time>2019-05-29T12:15:21Z</time>
      </trkpt>
      <trkpt lat="43.10202" lon="5.95269">
        <ele>-2.75</ele>
        <time>2019-05-29T12:15:38Z</time>
      </trkpt>
      <trkpt lat="43.10203" lon="5.95258">
        <ele>-2.27</ele>
        <time>2019-05-29T12:15:46Z</time>
      </trkpt>
      <trkpt lat="43.10201" lon="5.95246">
        <ele>-2.75</ele>
        <time>2019-05-29T12:15:57Z</time>
      </trkpt>
      <trkpt lat="43.10201" lon="5.95244">
        <ele>-2.75</ele>
        <time>2019-05-29T12:15:59Z</time>
      </trkpt>
      <trkpt lat="43.10201" lon="5.95234">
        <ele>-3.71</ele>
        <time>2019-05-29T12:16:10Z</time>
      </trkpt>
      <trkpt lat="43.10203" lon="5.95223">
        <ele>-3.71</ele>
        <time>2019-05-29T12:16:22Z</time>
      </trkpt>
      <trkpt lat="43.1021" lon="5.95208">
        <ele>-2.75</ele>
        <time>2019-05-29T12:16:35Z</time>
      </trkpt>
      <trkpt lat="43.10217" lon="5.95183">
        <ele>-4.19</ele>
        <time>2019-05-29T12:16:53Z</time>
      </trkpt>
      <trkpt lat="43.10214" lon="5.95161">
        <ele>-3.23</ele>
        <time>2019-05-29T12:17:08Z</time>
      </trkpt>
      <trkpt lat="43.10213" lon="5.95153">
        <ele>-2.27</ele>
        <time>2019-05-29T12:17:14Z</time>
      </trkpt>
      <trkpt lat="43.10213" lon="5.95134">
        <ele>-2.75</ele>
        <time>2019-05-29T12:17:29Z</time>
      </trkpt>
      <trkpt lat="43.10211" lon="5.95129">
        <ele>-3.23</ele>
        <time>2019-05-29T12:17:32Z</time>
      </trkpt>
      <trkpt lat="43.102" lon="5.95113">
        <ele>-5.15</ele>
        <time>2019-05-29T12:17:44Z</time>
      </trkpt>
      <trkpt lat="43.10195" lon="5.95112">
        <ele>-4.67</ele>
        <time>2019-05-29T12:17:46Z</time>
      </trkpt>
      <trkpt lat="43.10189" lon="5.95105">
        <ele>-5.15</ele>
        <time>2019-05-29T12:17:50Z</time>
      </trkpt>
      <trkpt lat="43.10171" lon="5.95081">
        <ele>-7.07</ele>
        <time>2019-05-29T12:18:03Z</time>
      </trkpt>
      <trkpt lat="43.10154" lon="5.95055">
        <ele>-4.67</ele>
        <time>2019-05-29T12:18:18Z</time>
      </trkpt>
      <trkpt lat="43.10139" lon="5.95029">
        <ele>-3.71</ele>
        <time>2019-05-29T12:18:34Z</time>
      </trkpt>
      <trkpt lat="43.10128" lon="5.95008">
        <ele>-4.19</ele>
        <time>2019-05-29T12:18:47Z</time>
      </trkpt>
      <trkpt lat="43.10117" lon="5.94985">
        <ele>-3.23</ele>
        <time>2019-05-29T12:19:04Z</time>
      </trkpt>
      <trkpt lat="43.10103" lon="5.94961">
        <ele>-4.67</ele>
        <time>2019-05-29T12:19:19Z</time>
      </trkpt>
      <trkpt lat="43.10091" lon="5.94946">
        <ele>-0.34</ele>
        <time>2019-05-29T12:19:31Z</time>
      </trkpt>
      <trkpt lat="43.10082" lon="5.94923">
        <ele>-3.23</ele>
        <time>2019-05-29T12:19:41Z</time>
      </trkpt>
      <trkpt lat="43.1007" lon="5.94903">
        <ele>-3.71</ele>
        <time>2019-05-29T12:19:53Z</time>
      </trkpt>
      <trkpt lat="43.10056" lon="5.9487">
        <ele>-5.63</ele>
        <time>2019-05-29T12:20:13Z</time>
      </trkpt>
      <trkpt lat="43.10035" lon="5.94844">
        <ele>-5.15</ele>
        <time>2019-05-29T12:20:29Z</time>
      </trkpt>
      <trkpt lat="43.10017" lon="5.94818">
        <ele>-4.19</ele>
        <time>2019-05-29T12:20:43Z</time>
      </trkpt>
      <trkpt lat="43.09998" lon="5.94781">
        <ele>-3.71</ele>
        <time>2019-05-29T12:21:02Z</time>
      </trkpt>
      <trkpt lat="43.09989" lon="5.94768">
        <ele>-4.19</ele>
        <time>2019-05-29T12:21:09Z</time>
      </trkpt>
      <trkpt lat="43.09982" lon="5.94759">
        <ele>-2.27</ele>
        <time>2019-05-29T12:21:15Z</time>
      </trkpt>
      <trkpt lat="43.09979" lon="5.94755">
        <ele>-1.79</ele>
        <time>2019-05-29T12:21:17Z</time>
      </trkpt>
      <trkpt lat="43.09967" lon="5.94735">
        <ele>-5.63</ele>
        <time>2019-05-29T12:21:28Z</time>
      </trkpt>
      <trkpt lat="43.09952" lon="5.94719">
        <ele>-6.11</ele>
        <time>2019-05-29T12:21:39Z</time>
      </trkpt>
      <trkpt lat="43.09944" lon="5.94713">
        <ele>-5.63</ele>
        <time>2019-05-29T12:21:44Z</time>
      </trkpt>
      <trkpt lat="43.09931" lon="5.94704">
        <ele>-5.15</ele>
        <time>2019-05-29T12:21:52Z</time>
      </trkpt>
      <trkpt lat="43.09924" lon="5.94694">
        <ele>-3.71</ele>
        <time>2019-05-29T12:21:59Z</time>
      </trkpt>
      <trkpt lat="43.09926" lon="5.94676">
        <ele>-0.34</ele>
        <time>2019-05-29T12:22:15Z</time>
      </trkpt>
      <trkpt lat="43.09929" lon="5.94673">
        <ele>1.1</ele>
        <time>2019-05-29T12:22:19Z</time>
      </trkpt>
      <trkpt lat="43.09943" lon="5.94653">
        <ele>3.02</ele>
        <time>2019-05-29T12:22:33Z</time>
      </trkpt>
      <trkpt lat="43.09955" lon="5.94631">
        <ele>2.54</ele>
        <time>2019-05-29T12:22:48Z</time>
      </trkpt>
      <trkpt lat="43.09962" lon="5.94624">
        <ele>3.02</ele>
        <time>2019-05-29T12:22:54Z</time>
      </trkpt>
      <trkpt lat="43.0998" lon="5.94607">
        <ele>6.39</ele>
        <time>2019-05-29T12:23:07Z</time>
      </trkpt>
      <trkpt lat="43.10005" lon="5.94589">
        <ele>5.91</ele>
        <time>2019-05-29T12:23:21Z</time>
      </trkpt>
      <trkpt lat="43.10019" lon="5.94588">
        <ele>6.87</ele>
        <time>2019-05-29T12:23:28Z</time>
      </trkpt>
      <trkpt lat="43.10047" lon="5.94597">
        <ele>7.83</ele>
        <time>2019-05-29T12:23:41Z</time>
      </trkpt>
      <trkpt lat="43.10071" lon="5.94616">
        <ele>6.87</ele>
        <time>2019-05-29T12:23:54Z</time>
      </trkpt>
      <trkpt lat="43.10094" lon="5.94636">
        <ele>5.91</ele>
        <time>2019-05-29T12:24:06Z</time>
      </trkpt>
      <trkpt lat="43.10114" lon="5.94673">
        <ele>4.94</ele>
        <time>2019-05-29T12:24:21Z</time>
      </trkpt>
      <trkpt lat="43.1014" lon="5.94706">
        <ele>3.5</ele>
        <time>2019-05-29T12:24:37Z</time>
      </trkpt>
      <trkpt lat="43.10159" lon="5.9474">
        <ele>1.1</ele>
        <time>2019-05-29T12:24:51Z</time>
      </trkpt>
      <trkpt lat="43.10174" lon="5.94788">
        <ele>0.14</ele>
        <time>2019-05-29T12:25:08Z</time>
      </trkpt>
      <trkpt lat="43.10182" lon="5.94838">
        <ele>-0.82</ele>
        <time>2019-05-29T12:25:25Z</time>
      </trkpt>
      <trkpt lat="43.10187" lon="5.94882">
        <ele>-2.27</ele>
        <time>2019-05-29T12:25:40Z</time>
      </trkpt>
      <trkpt lat="43.10194" lon="5.94926">
        <ele>-2.27</ele>
        <time>2019-05-29T12:25:55Z</time>
      </trkpt>
      <trkpt lat="43.10207" lon="5.94976">
        <ele>-2.75</ele>
        <time>2019-05-29T12:26:12Z</time>
      </trkpt>
      <trkpt lat="43.10212" lon="5.95022">
        <ele>-2.27</ele>
        <time>2019-05-29T12:26:28Z</time>
      </trkpt>
      <trkpt lat="43.10214" lon="5.95065">
        <ele>-2.27</ele>
        <time>2019-05-29T12:26:43Z</time>
      </trkpt>
      <trkpt lat="43.10205" lon="5.95105">
        <ele>-2.27</ele>
        <time>2019-05-29T12:26:57Z</time>
      </trkpt>
      <trkpt lat="43.10195" lon="5.9515">
        <ele>-2.27</ele>
        <time>2019-05-29T12:27:13Z</time>
      </trkpt>
      <trkpt lat="43.10187" lon="5.9519">
        <ele>-1.3</ele>
        <time>2019-05-29T12:27:26Z</time>
      </trkpt>
      <trkpt lat="43.10174" lon="5.95239">
        <ele>-1.3</ele>
        <time>2019-05-29T12:27:43Z</time>
      </trkpt>
      <trkpt lat="43.10174" lon="5.9529">
        <ele>-3.23</ele>
        <time>2019-05-29T12:28:01Z</time>
      </trkpt>
      <trkpt lat="43.10176" lon="5.9534">
        <ele>-3.71</ele>
        <time>2019-05-29T12:28:18Z</time>
      </trkpt>
      <trkpt lat="43.10156" lon="5.95381">
        <ele>-4.19</ele>
        <time>2019-05-29T12:28:35Z</time>
      </trkpt>
      <trkpt lat="43.10134" lon="5.95385">
        <ele>-5.15</ele>
        <time>2019-05-29T12:28:45Z</time>
      </trkpt>
      <trkpt lat="43.10126" lon="5.95371">
        <ele>-1.79</ele>
        <time>2019-05-29T12:28:54Z</time>
      </trkpt>
      <trkpt lat="43.10125" lon="5.95356">
        <ele>-1.3</ele>
        <time>2019-05-29T12:29:04Z</time>
      </trkpt>
      <trkpt lat="43.10129" lon="5.95348">
        <ele>-0.82</ele>
        <time>2019-05-29T12:29:10Z</time>
      </trkpt>
      <trkpt lat="43.10149" lon="5.9533">
        <ele>-1.3</ele>
        <time>2019-05-29T12:29:24Z</time>
      </trkpt>
      <trkpt lat="43.10169" lon="5.95305">
        <ele>-1.3</ele>
        <time>2019-05-29T12:29:38Z</time>
      </trkpt>
      <trkpt lat="43.10193" lon="5.95295">
        <ele>0.14</ele>
        <time>2019-05-29T12:29:50Z</time>
      </trkpt>
      <trkpt lat="43.10199" lon="5.95295">
        <ele>0.14</ele>
        <time>2019-05-29T12:29:53Z</time>
      </trkpt>
      <trkpt lat="43.10217" lon="5.95298">
        <ele>0.62</ele>
        <time>2019-05-29T12:30:02Z</time>
      </trkpt>
      <trkpt lat="43.10222" lon="5.95301">
        <ele>0.14</ele>
        <time>2019-05-29T12:30:05Z</time>
      </trkpt>
      <trkpt lat="43.10237" lon="5.95313">
        <ele>-0.34</ele>
        <time>2019-05-29T12:30:14Z</time>
      </trkpt>
      <trkpt lat="43.10259" lon="5.95337">
        <ele>-1.3</ele>
        <time>2019-05-29T12:30:29Z</time>
      </trkpt>
      <trkpt lat="43.10267" lon="5.95341">
        <ele>-1.79</ele>
        <time>2019-05-29T12:30:34Z</time>
      </trkpt>
      <trkpt lat="43.10291" lon="5.9535">
        <ele>-1.3</ele>
        <time>2019-05-29T12:30:48Z</time>
      </trkpt>
      <trkpt lat="43.10293" lon="5.9535">
        <ele>-1.3</ele>
        <time>2019-05-29T12:30:49Z</time>
      </trkpt>
      <trkpt lat="43.10298" lon="5.95352">
        <ele>-1.3</ele>
        <time>2019-05-29T12:30:52Z</time>
      </trkpt>
      <trkpt lat="43.10305" lon="5.95354">
        <ele>-1.79</ele>
        <time>2019-05-29T12:30:56Z</time>
      </trkpt>
      <trkpt lat="43.10324" lon="5.9536">
        <ele>-1.79</ele>
        <time>2019-05-29T12:31:07Z</time>
      </trkpt>
      <trkpt lat="43.10349" lon="5.95366">
        <ele>-1.79</ele>
        <time>2019-05-29T12:31:21Z</time>
      </trkpt>
      <trkpt lat="43.10363" lon="5.9537">
        <ele>-1.79</ele>
        <time>2019-05-29T12:31:28Z</time>
      </trkpt>
      <trkpt lat="43.10397" lon="5.9539">
        <ele>-1.79</ele>
        <time>2019-05-29T12:31:44Z</time>
      </trkpt>
      <trkpt lat="43.10416" lon="5.95422">
        <ele>-2.27</ele>
        <time>2019-05-29T12:31:57Z</time>
      </trkpt>
      <trkpt lat="43.10448" lon="5.95422">
        <ele>-2.75</ele>
        <time>2019-05-29T12:32:14Z</time>
      </trkpt>
      <trkpt lat="43.10454" lon="5.95412">
        <ele>-3.71</ele>
        <time>2019-05-29T12:32:21Z</time>
      </trkpt>
      <trkpt lat="43.10453" lon="5.95407">
        <ele>-4.19</ele>
        <time>2019-05-29T12:32:24Z</time>
      </trkpt>
      <trkpt lat="43.10434" lon="5.95398">
        <ele>-5.63</ele>
        <time>2019-05-29T12:32:37Z</time>
      </trkpt>
      <trkpt lat="43.1043" lon="5.95393">
        <ele>-5.63</ele>
        <time>2019-05-29T12:32:40Z</time>
      </trkpt>
      <trkpt lat="43.10424" lon="5.95384">
        <ele>-6.59</ele>
        <time>2019-05-29T12:32:45Z</time>
      </trkpt>
      <trkpt lat="43.10414" lon="5.95355">
        <ele>-4.19</ele>
        <time>2019-05-29T12:33:03Z</time>
      </trkpt>
      <trkpt lat="43.10406" lon="5.95342">
        <ele>-4.19</ele>
        <time>2019-05-29T12:33:15Z</time>
      </trkpt>
      <trkpt lat="43.10402" lon="5.95337">
        <ele>-2.75</ele>
        <time>2019-05-29T12:33:19Z</time>
      </trkpt>
      <trkpt lat="43.10393" lon="5.95333">
        <ele>-2.27</ele>
        <time>2019-05-29T12:33:23Z</time>
      </trkpt>
      <trkpt lat="43.1039" lon="5.95326">
        <ele>-2.75</ele>
        <time>2019-05-29T12:33:26Z</time>
      </trkpt>
      <trkpt lat="43.10391" lon="5.95317">
        <ele>-3.23</ele>
        <time>2019-05-29T12:33:31Z</time>
      </trkpt>
      <trkpt lat="43.10389" lon="5.9529">
        <ele>0.62</ele>
        <time>2019-05-29T12:33:48Z</time>
      </trkpt>
      <trkpt lat="43.10388" lon="5.95276">
        <ele>-0.82</ele>
        <time>2019-05-29T12:34:01Z</time>
      </trkpt>
      <trkpt lat="43.10375" lon="5.95264">
        <ele>-0.82</ele>
        <time>2019-05-29T12:34:15Z</time>
      </trkpt>
      <trkpt lat="43.1036" lon="5.95252">
        <ele>-4.67</ele>
        <time>2019-05-29T12:34:29Z</time>
      </trkpt>
      <trkpt lat="43.10354" lon="5.95239">
        <ele>-5.15</ele>
        <time>2019-05-29T12:34:41Z</time>
      </trkpt>
      <trkpt lat="43.10346" lon="5.95235">
        <ele>-6.59</ele>
        <time>2019-05-29T12:34:47Z</time>
      </trkpt>
      <trkpt lat="43.10329" lon="5.95218">
        <ele>-6.11</ele>
        <time>2019-05-29T12:35:05Z</time>
      </trkpt>
      <trkpt lat="43.10314" lon="5.95205">
        <ele>-3.23</ele>
        <time>2019-05-29T12:35:23Z</time>
      </trkpt>
      <trkpt lat="43.10306" lon="5.95199">
        <ele>-2.27</ele>
        <time>2019-05-29T12:35:30Z</time>
      </trkpt>
      <trkpt lat="43.10291" lon="5.95184">
        <ele>-4.19</ele>
        <time>2019-05-29T12:35:45Z</time>
      </trkpt>
      <trkpt lat="43.10269" lon="5.95169">
        <ele>-5.63</ele>
        <time>2019-05-29T12:35:58Z</time>
      </trkpt>
      <trkpt lat="43.10267" lon="5.95167">
        <ele>-5.15</ele>
        <time>2019-05-29T12:35:59Z</time>
      </trkpt>
      <trkpt lat="43.10253" lon="5.95152">
        <ele>-3.71</ele>
        <time>2019-05-29T12:36:09Z</time>
      </trkpt>
      <trkpt lat="43.10228" lon="5.95126">
        <ele>-3.71</ele>
        <time>2019-05-29T12:36:23Z</time>
      </trkpt>
      <trkpt lat="43.10208" lon="5.9511">
        <ele>-5.63</ele>
        <time>2019-05-29T12:36:32Z</time>
      </trkpt>
      <trkpt lat="43.10213" lon="5.95097">
        <ele>-5.63</ele>
        <time>2019-05-29T12:36:39Z</time>
      </trkpt>
      <trkpt lat="43.10226" lon="5.95079">
        <ele>-7.55</ele>
        <time>2019-05-29T12:36:53Z</time>
      </trkpt>
      <trkpt lat="43.10248" lon="5.95072">
        <ele>-5.63</ele>
        <time>2019-05-29T12:37:05Z</time>
      </trkpt>
      <trkpt lat="43.10258" lon="5.95067">
        <ele>-5.63</ele>
        <time>2019-05-29T12:37:10Z</time>
      </trkpt>
      <trkpt lat="43.10266" lon="5.95063">
        <ele>-6.11</ele>
        <time>2019-05-29T12:37:14Z</time>
      </trkpt>
      <trkpt lat="43.10308" lon="5.9505">
        <ele>-3.71</ele>
        <time>2019-05-29T12:37:31Z</time>
      </trkpt>
      <trkpt lat="43.10349" lon="5.95028">
        <ele>-4.67</ele>
        <time>2019-05-29T12:37:45Z</time>
      </trkpt>
      <trkpt lat="43.10385" lon="5.95012">
        <ele>-4.19</ele>
        <time>2019-05-29T12:37:56Z</time>
      </trkpt>
      <trkpt lat="43.10413" lon="5.94998">
        <ele>-5.15</ele>
        <time>2019-05-29T12:38:05Z</time>
      </trkpt>
      <trkpt lat="43.1045" lon="5.94979">
        <ele>-5.15</ele>
        <time>2019-05-29T12:38:17Z</time>
      </trkpt>
      <trkpt lat="43.1048" lon="5.94957">
        <ele>-5.15</ele>
        <time>2019-05-29T12:38:28Z</time>
      </trkpt>
      <trkpt lat="43.10493" lon="5.94945">
        <ele>-5.63</ele>
        <time>2019-05-29T12:38:33Z</time>
      </trkpt>
      <trkpt lat="43.10486" lon="5.94932">
        <ele>-6.11</ele>
        <time>2019-05-29T12:38:39Z</time>
      </trkpt>
      <trkpt lat="43.10465" lon="5.94906">
        <ele>-5.63</ele>
        <time>2019-05-29T12:38:52Z</time>
      </trkpt>
      <trkpt lat="43.10436" lon="5.94878">
        <ele>-7.07</ele>
        <time>2019-05-29T12:39:05Z</time>
      </trkpt>
      <trkpt lat="43.10397" lon="5.94842">
        <ele>-5.63</ele>
        <time>2019-05-29T12:39:20Z</time>
      </trkpt>
      <trkpt lat="43.10365" lon="5.94813">
        <ele>-4.67</ele>
        <time>2019-05-29T12:39:32Z</time>
      </trkpt>
      <trkpt lat="43.10334" lon="5.94782">
        <ele>-3.23</ele>
        <time>2019-05-29T12:39:45Z</time>
      </trkpt>
      <trkpt lat="43.10301" lon="5.94757">
        <ele>-4.19</ele>
        <time>2019-05-29T12:39:58Z</time>
      </trkpt>
      <trkpt lat="43.10265" lon="5.94734">
        <ele>-3.23</ele>
        <time>2019-05-29T12:40:10Z</time>
      </trkpt>
      <trkpt lat="43.10217" lon="5.94702">
        <ele>-1.79</ele>
        <time>2019-05-29T12:40:26Z</time>
      </trkpt>
      <trkpt lat="43.10174" lon="5.9467">
        <ele>-0.82</ele>
        <time>2019-05-29T12:40:41Z</time>
      </trkpt>
      <trkpt lat="43.1013" lon="5.94634">
        <ele>-2.27</ele>
        <time>2019-05-29T12:40:57Z</time>
      </trkpt>
      <trkpt lat="43.10098" lon="5.94603">
        <ele>-2.75</ele>
        <time>2019-05-29T12:41:09Z</time>
      </trkpt>
      <trkpt lat="43.1006" lon="5.94565">
        <ele>-4.19</ele>
        <time>2019-05-29T12:41:23Z</time>
      </trkpt>
      <trkpt lat="43.1002" lon="5.94518">
        <ele>-4.67</ele>
        <time>2019-05-29T12:41:39Z</time>
      </trkpt>
      <trkpt lat="43.09983" lon="5.94479">
        <ele>-4.19</ele>
        <time>2019-05-29T12:41:54Z</time>
      </trkpt>
      <trkpt lat="43.09953" lon="5.94444">
        <ele>-3.71</ele>
        <time>2019-05-29T12:42:08Z</time>
      </trkpt>
      <trkpt lat="43.09921" lon="5.94413">
        <ele>-4.19</ele>
        <time>2019-05-29T12:42:23Z</time>
      </trkpt>
      <trkpt lat="43.09878" lon="5.94382">
        <ele>-3.23</ele>
        <time>2019-05-29T12:42:40Z</time>
      </trkpt>
      <trkpt lat="43.09841" lon="5.94345">
        <ele>-3.71</ele>
        <time>2019-05-29T12:42:55Z</time>
      </trkpt>
      <trkpt lat="43.09847" lon="5.94333">
        <ele>-4.19</ele>
        <time>2019-05-29T12:43:01Z</time>
      </trkpt>
      <trkpt lat="43.09879" lon="5.94319">
        <ele>-3.71</ele>
        <time>2019-05-29T12:43:17Z</time>
      </trkpt>
      <trkpt lat="43.0992" lon="5.94303">
        <ele>-3.71</ele>
        <time>2019-05-29T12:43:33Z</time>
      </trkpt>
      <trkpt lat="43.09959" lon="5.94281">
        <ele>-4.19</ele>
        <time>2019-05-29T12:43:47Z</time>
      </trkpt>
      <trkpt lat="43.10001" lon="5.94246">
        <ele>-4.67</ele>
        <time>2019-05-29T12:44:02Z</time>
      </trkpt>
      <trkpt lat="43.10032" lon="5.94223">
        <ele>-6.11</ele>
        <time>2019-05-29T12:44:14Z</time>
      </trkpt>
      <trkpt lat="43.10076" lon="5.94198">
        <ele>-4.19</ele>
        <time>2019-05-29T12:44:29Z</time>
      </trkpt>
      <trkpt lat="43.10117" lon="5.94169">
        <ele>-4.67</ele>
        <time>2019-05-29T12:44:44Z</time>
      </trkpt>
      <trkpt lat="43.10156" lon="5.94154">
        <ele>-2.75</ele>
        <time>2019-05-29T12:44:57Z</time>
      </trkpt>
      <trkpt lat="43.10167" lon="5.94148">
        <ele>-2.75</ele>
        <time>2019-05-29T12:45:01Z</time>
      </trkpt>
      <trkpt lat="43.10166" lon="5.94138">
        <ele>-2.75</ele>
        <time>2019-05-29T12:45:05Z</time>
      </trkpt>
      <trkpt lat="43.10144" lon="5.94113">
        <ele>-4.67</ele>
        <time>2019-05-29T12:45:19Z</time>
      </trkpt>
      <trkpt lat="43.10121" lon="5.94082">
        <ele>-4.19</ele>
        <time>2019-05-29T12:45:30Z</time>
      </trkpt>
      <trkpt lat="43.10095" lon="5.94042">
        <ele>-1.79</ele>
        <time>2019-05-29T12:45:42Z</time>
      </trkpt>
      <trkpt lat="43.10074" lon="5.94006">
        <ele>-2.75</ele>
        <time>2019-05-29T12:45:53Z</time>
      </trkpt>
      <trkpt lat="43.10048" lon="5.93968">
        <ele>-3.71</ele>
        <time>2019-05-29T12:46:06Z</time>
      </trkpt>
      <trkpt lat="43.10023" lon="5.9392">
        <ele>-4.19</ele>
        <time>2019-05-29T12:46:19Z</time>
      </trkpt>
      <trkpt lat="43.09995" lon="5.93859">
        <ele>-3.71</ele>
        <time>2019-05-29T12:46:35Z</time>
      </trkpt>
      <trkpt lat="43.09974" lon="5.93809">
        <ele>-4.67</ele>
        <time>2019-05-29T12:46:49Z</time>
      </trkpt>
      <trkpt lat="43.09952" lon="5.93761">
        <ele>-2.75</ele>
        <time>2019-05-29T12:47:03Z</time>
      </trkpt>
      <trkpt lat="43.09931" lon="5.93718">
        <ele>-2.75</ele>
        <time>2019-05-29T12:47:17Z</time>
      </trkpt>
      <trkpt lat="43.09911" lon="5.93682">
        <ele>-3.23</ele>
        <time>2019-05-29T12:47:32Z</time>
      </trkpt>
      <trkpt lat="43.09889" lon="5.93653">
        <ele>-5.63</ele>
        <time>2019-05-29T12:47:44Z</time>
      </trkpt>
      <trkpt lat="43.09865" lon="5.9361">
        <ele>-3.23</ele>
        <time>2019-05-29T12:47:58Z</time>
      </trkpt>
      <trkpt lat="43.09861" lon="5.93603">
        <ele>-3.71</ele>
        <time>2019-05-29T12:48:00Z</time>
      </trkpt>
      <trkpt lat="43.09871" lon="5.93586">
        <ele>-5.15</ele>
        <time>2019-05-29T12:48:09Z</time>
      </trkpt>
      <trkpt lat="43.09908" lon="5.93574">
        <ele>-3.23</ele>
        <time>2019-05-29T12:48:26Z</time>
      </trkpt>
      <trkpt lat="43.09928" lon="5.9357">
        <ele>-4.19</ele>
        <time>2019-05-29T12:48:33Z</time>
      </trkpt>
      <trkpt lat="43.09932" lon="5.93566">
        <ele>-5.15</ele>
        <time>2019-05-29T12:48:35Z</time>
      </trkpt>
      <trkpt lat="43.0993" lon="5.93557">
        <ele>-4.19</ele>
        <time>2019-05-29T12:48:40Z</time>
      </trkpt>
      <trkpt lat="43.09908" lon="5.93534">
        <ele>-4.19</ele>
        <time>2019-05-29T12:48:54Z</time>
      </trkpt>
      <trkpt lat="43.09887" lon="5.93507">
        <ele>-4.67</ele>
        <time>2019-05-29T12:49:08Z</time>
      </trkpt>
      <trkpt lat="43.09851" lon="5.93464">
        <ele>-6.11</ele>
        <time>2019-05-29T12:49:28Z</time>
      </trkpt>
      <trkpt lat="43.09835" lon="5.93434">
        <ele>-5.15</ele>
        <time>2019-05-29T12:49:39Z</time>
      </trkpt>
      <trkpt lat="43.09811" lon="5.93425">
        <ele>-2.75</ele>
        <time>2019-05-29T12:49:49Z</time>
      </trkpt>
      <trkpt lat="43.09786" lon="5.93462">
        <ele>-1.3</ele>
        <time>2019-05-29T12:50:00Z</time>
      </trkpt>
      <trkpt lat="43.09763" lon="5.93523">
        <ele>-3.23</ele>
        <time>2019-05-29T12:50:14Z</time>
      </trkpt>
      <trkpt lat="43.09734" lon="5.93587">
        <ele>-4.19</ele>
        <time>2019-05-29T12:50:30Z</time>
      </trkpt>
      <trkpt lat="43.09708" lon="5.9365">
        <ele>-2.27</ele>
        <time>2019-05-29T12:50:46Z</time>
      </trkpt>
      <trkpt lat="43.0969" lon="5.93708">
        <ele>-1.79</ele>
        <time>2019-05-29T12:51:00Z</time>
      </trkpt>
      <trkpt lat="43.09672" lon="5.93763">
        <ele>-1.79</ele>
        <time>2019-05-29T12:51:14Z</time>
      </trkpt>
      <trkpt lat="43.09645" lon="5.93817">
        <ele>-2.75</ele>
        <time>2019-05-29T12:51:28Z</time>
      </trkpt>
      <trkpt lat="43.09614" lon="5.93883">
        <ele>-3.71</ele>
        <time>2019-05-29T12:51:44Z</time>
      </trkpt>
      <trkpt lat="43.09592" lon="5.93938">
        <ele>-3.23</ele>
        <time>2019-05-29T12:51:57Z</time>
      </trkpt>
      <trkpt lat="43.09578" lon="5.93992">
        <ele>-3.23</ele>
        <time>2019-05-29T12:52:09Z</time>
      </trkpt>
      <trkpt lat="43.09565" lon="5.94043">
        <ele>-2.27</ele>
        <time>2019-05-29T12:52:21Z</time>
      </trkpt>
      <trkpt lat="43.09544" lon="5.94104">
        <ele>-1.79</ele>
        <time>2019-05-29T12:52:35Z</time>
      </trkpt>
      <trkpt lat="43.09516" lon="5.94166">
        <ele>-3.23</ele>
        <time>2019-05-29T12:52:49Z</time>
      </trkpt>
      <trkpt lat="43.09496" lon="5.94227">
        <ele>-3.23</ele>
        <time>2019-05-29T12:53:02Z</time>
      </trkpt>
      <trkpt lat="43.09482" lon="5.94291">
        <ele>-3.71</ele>
        <time>2019-05-29T12:53:15Z</time>
      </trkpt>
      <trkpt lat="43.09476" lon="5.94362">
        <ele>-3.71</ele>
        <time>2019-05-29T12:53:30Z</time>
      </trkpt>
      <trkpt lat="43.09476" lon="5.94422">
        <ele>-3.23</ele>
        <time>2019-05-29T12:53:43Z</time>
      </trkpt>
      <trkpt lat="43.09479" lon="5.94478">
        <ele>-1.79</ele>
        <time>2019-05-29T12:53:55Z</time>
      </trkpt>
      <trkpt lat="43.09489" lon="5.94559">
        <ele>-2.75</ele>
        <time>2019-05-29T12:54:12Z</time>
      </trkpt>
      <trkpt lat="43.09498" lon="5.94648">
        <ele>-3.71</ele>
        <time>2019-05-29T12:54:30Z</time>
      </trkpt>
      <trkpt lat="43.09508" lon="5.94735">
        <ele>-5.15</ele>
        <time>2019-05-29T12:54:47Z</time>
      </trkpt>
      <trkpt lat="43.09514" lon="5.94814">
        <ele>-3.71</ele>
        <time>2019-05-29T12:55:03Z</time>
      </trkpt>
      <trkpt lat="43.0952" lon="5.94894">
        <ele>-4.19</ele>
        <time>2019-05-29T12:55:19Z</time>
      </trkpt>
      <trkpt lat="43.09531" lon="5.94986">
        <ele>-2.27</ele>
        <time>2019-05-29T12:55:37Z</time>
      </trkpt>
      <trkpt lat="43.09535" lon="5.95063">
        <ele>-2.27</ele>
        <time>2019-05-29T12:55:52Z</time>
      </trkpt>
      <trkpt lat="43.09547" lon="5.95135">
        <ele>-1.79</ele>
        <time>2019-05-29T12:56:07Z</time>
      </trkpt>
      <trkpt lat="43.0956" lon="5.95209">
        <ele>-3.23</ele>
        <time>2019-05-29T12:56:23Z</time>
      </trkpt>
      <trkpt lat="43.09573" lon="5.95284">
        <ele>-3.23</ele>
        <time>2019-05-29T12:56:39Z</time>
      </trkpt>
      <trkpt lat="43.09591" lon="5.95366">
        <ele>-3.71</ele>
        <time>2019-05-29T12:56:57Z</time>
      </trkpt>
      <trkpt lat="43.09601" lon="5.95442">
        <ele>-2.75</ele>
        <time>2019-05-29T12:57:14Z</time>
      </trkpt>
      <trkpt lat="43.09615" lon="5.95524">
        <ele>-3.23</ele>
        <time>2019-05-29T12:57:33Z</time>
      </trkpt>
      <trkpt lat="43.09624" lon="5.95602">
        <ele>-2.75</ele>
        <time>2019-05-29T12:57:51Z</time>
      </trkpt>
      <trkpt lat="43.09622" lon="5.95673">
        <ele>-3.71</ele>
        <time>2019-05-29T12:58:07Z</time>
      </trkpt>
      <trkpt lat="43.09618" lon="5.95737">
        <ele>-3.23</ele>
        <time>2019-05-29T12:58:22Z</time>
      </trkpt>
      <trkpt lat="43.09615" lon="5.95807">
        <ele>-4.19</ele>
        <time>2019-05-29T12:58:38Z</time>
      </trkpt>
      <trkpt lat="43.09613" lon="5.95878">
        <ele>-4.19</ele>
        <time>2019-05-29T12:58:55Z</time>
      </trkpt>
      <trkpt lat="43.09612" lon="5.95958">
        <ele>-3.71</ele>
        <time>2019-05-29T12:59:15Z</time>
      </trkpt>
      <trkpt lat="43.0961" lon="5.96028">
        <ele>-4.19</ele>
        <time>2019-05-29T12:59:31Z</time>
      </trkpt>
      <trkpt lat="43.09604" lon="5.96103">
        <ele>-3.23</ele>
        <time>2019-05-29T12:59:47Z</time>
      </trkpt>
      <trkpt lat="43.09586" lon="5.9616">
        <ele>-4.67</ele>
        <time>2019-05-29T13:00:00Z</time>
      </trkpt>
      <trkpt lat="43.09572" lon="5.96205">
        <ele>-5.15</ele>
        <time>2019-05-29T13:00:10Z</time>
      </trkpt>
      <trkpt lat="43.0955" lon="5.96264">
        <ele>-5.15</ele>
        <time>2019-05-29T13:00:23Z</time>
      </trkpt>
      <trkpt lat="43.09532" lon="5.96328">
        <ele>-6.11</ele>
        <time>2019-05-29T13:00:37Z</time>
      </trkpt>
      <trkpt lat="43.09512" lon="5.96391">
        <ele>-7.07</ele>
        <time>2019-05-29T13:00:51Z</time>
      </trkpt>
      <trkpt lat="43.09491" lon="5.96452">
        <ele>-7.07</ele>
        <time>2019-05-29T13:01:05Z</time>
      </trkpt>
      <trkpt lat="43.09476" lon="5.96505">
        <ele>-6.11</ele>
        <time>2019-05-29T13:01:17Z</time>
      </trkpt>
      <trkpt lat="43.09462" lon="5.96557">
        <ele>-5.15</ele>
        <time>2019-05-29T13:01:29Z</time>
      </trkpt>
      <trkpt lat="43.09446" lon="5.96608">
        <ele>-4.67</ele>
        <time>2019-05-29T13:01:41Z</time>
      </trkpt>
      <trkpt lat="43.09429" lon="5.96663">
        <ele>-2.75</ele>
        <time>2019-05-29T13:01:54Z</time>
      </trkpt>
      <trkpt lat="43.09417" lon="5.96711">
        <ele>-0.82</ele>
        <time>2019-05-29T13:02:05Z</time>
      </trkpt>
      <trkpt lat="43.094" lon="5.96772">
        <ele>-1.79</ele>
        <time>2019-05-29T13:02:19Z</time>
      </trkpt>
      <trkpt lat="43.09388" lon="5.96814">
        <ele>-0.34</ele>
        <time>2019-05-29T13:02:29Z</time>
      </trkpt>
      <trkpt lat="43.09376" lon="5.96865">
        <ele>0.62</ele>
        <time>2019-05-29T13:02:41Z</time>
      </trkpt>
      <trkpt lat="43.09365" lon="5.96917">
        <ele>-0.34</ele>
        <time>2019-05-29T13:02:53Z</time>
      </trkpt>
      <trkpt lat="43.09352" lon="5.96963">
        <ele>-0.82</ele>
        <time>2019-05-29T13:03:04Z</time>
      </trkpt>
      <trkpt lat="43.09342" lon="5.97006">
        <ele>-2.27</ele>
        <time>2019-05-29T13:03:14Z</time>
      </trkpt>
      <trkpt lat="43.0933" lon="5.97052">
        <ele>-1.79</ele>
        <time>2019-05-29T13:03:25Z</time>
      </trkpt>
      <trkpt lat="43.0932" lon="5.97097">
        <ele>-1.79</ele>
        <time>2019-05-29T13:03:36Z</time>
      </trkpt>
      <trkpt lat="43.09305" lon="5.97149">
        <ele>-4.67</ele>
        <time>2019-05-29T13:03:49Z</time>
      </trkpt>
      <trkpt lat="43.0929" lon="5.97191">
        <ele>-3.23</ele>
        <time>2019-05-29T13:04:00Z</time>
      </trkpt>
      <trkpt lat="43.09275" lon="5.9725">
        <ele>-2.27</ele>
        <time>2019-05-29T13:04:14Z</time>
      </trkpt>
      <trkpt lat="43.09263" lon="5.97301">
        <ele>-2.75</ele>
        <time>2019-05-29T13:04:26Z</time>
      </trkpt>
      <trkpt lat="43.09253" lon="5.97336">
        <ele>-2.27</ele>
        <time>2019-05-29T13:04:34Z</time>
      </trkpt>
      <trkpt lat="43.09236" lon="5.9739">
        <ele>-1.79</ele>
        <time>2019-05-29T13:04:46Z</time>
      </trkpt>
      <trkpt lat="43.09222" lon="5.97439">
        <ele>-0.82</ele>
        <time>2019-05-29T13:04:57Z</time>
      </trkpt>
      <trkpt lat="43.09206" lon="5.9749">
        <ele>-1.79</ele>
        <time>2019-05-29T13:05:08Z</time>
      </trkpt>
      <trkpt lat="43.09194" lon="5.97539">
        <ele>-1.3</ele>
        <time>2019-05-29T13:05:19Z</time>
      </trkpt>
      <trkpt lat="43.09177" lon="5.97589">
        <ele>-1.3</ele>
        <time>2019-05-29T13:05:31Z</time>
      </trkpt>
      <trkpt lat="43.09166" lon="5.97628">
        <ele>-0.34</ele>
        <time>2019-05-29T13:05:40Z</time>
      </trkpt>
      <trkpt lat="43.09158" lon="5.97664">
        <ele>1.58</ele>
        <time>2019-05-29T13:05:49Z</time>
      </trkpt>
      <trkpt lat="43.09145" lon="5.97705">
        <ele>4.46</ele>
        <time>2019-05-29T13:06:00Z</time>
      </trkpt>
      <trkpt lat="43.09136" lon="5.97757">
        <ele>3.02</ele>
        <time>2019-05-29T13:06:11Z</time>
      </trkpt>
      <trkpt lat="43.09127" lon="5.97801">
        <ele>-1.3</ele>
        <time>2019-05-29T13:06:21Z</time>
      </trkpt>
      <trkpt lat="43.09107" lon="5.97863">
        <ele>-2.27</ele>
        <time>2019-05-29T13:06:36Z</time>
      </trkpt>
      <trkpt lat="43.09102" lon="5.97885">
        <ele>-2.75</ele>
        <time>2019-05-29T13:06:41Z</time>
      </trkpt>
      <trkpt lat="43.09083" lon="5.97934">
        <ele>-5.15</ele>
        <time>2019-05-29T13:06:53Z</time>
      </trkpt>
      <trkpt lat="43.09072" lon="5.97971">
        <ele>-4.67</ele>
        <time>2019-05-29T13:07:02Z</time>
      </trkpt>
      <trkpt lat="43.09059" lon="5.98015">
        <ele>-4.67</ele>
        <time>2019-05-29T13:07:13Z</time>
      </trkpt>
      <trkpt lat="43.09046" lon="5.98062">
        <ele>-3.23</ele>
        <time>2019-05-29T13:07:25Z</time>
      </trkpt>
      <trkpt lat="43.09038" lon="5.98085">
        <ele>-4.19</ele>
        <time>2019-05-29T13:07:31Z</time>
      </trkpt>
      <trkpt lat="43.09035" lon="5.98102">
        <ele>-4.67</ele>
        <time>2019-05-29T13:07:36Z</time>
      </trkpt>
      <trkpt lat="43.09015" lon="5.9816">
        <ele>-5.63</ele>
        <time>2019-05-29T13:07:50Z</time>
      </trkpt>
      <trkpt lat="43.09" lon="5.98206">
        <ele>-4.19</ele>
        <time>2019-05-29T13:08:01Z</time>
      </trkpt>
      <trkpt lat="43.08978" lon="5.98261">
        <ele>-5.15</ele>
        <time>2019-05-29T13:08:14Z</time>
      </trkpt>
      <trkpt lat="43.08955" lon="5.98315">
        <ele>-5.63</ele>
        <time>2019-05-29T13:08:27Z</time>
      </trkpt>
      <trkpt lat="43.08933" lon="5.98368">
        <ele>-4.67</ele>
        <time>2019-05-29T13:08:40Z</time>
      </trkpt>
      <trkpt lat="43.08909" lon="5.9841">
        <ele>-6.11</ele>
        <time>2019-05-29T13:08:51Z</time>
      </trkpt>
      <trkpt lat="43.08907" lon="5.98413">
        <ele>-6.11</ele>
        <time>2019-05-29T13:08:52Z</time>
      </trkpt>
      <trkpt lat="43.0888" lon="5.9846">
        <ele>-5.15</ele>
        <time>2019-05-29T13:09:04Z</time>
      </trkpt>
      <trkpt lat="43.08853" lon="5.98527">
        <ele>-4.67</ele>
        <time>2019-05-29T13:09:21Z</time>
      </trkpt>
      <trkpt lat="43.08856" lon="5.98574">
        <ele>-4.19</ele>
        <time>2019-05-29T13:09:33Z</time>
      </trkpt>
      <trkpt lat="43.0886" lon="5.98621">
        <ele>-4.19</ele>
        <time>2019-05-29T13:09:44Z</time>
      </trkpt>
      <trkpt lat="43.08857" lon="5.98668">
        <ele>-4.67</ele>
        <time>2019-05-29T13:09:55Z</time>
      </trkpt>
      <trkpt lat="43.08851" lon="5.98716">
        <ele>-5.63</ele>
        <time>2019-05-29T13:10:06Z</time>
      </trkpt>
      <trkpt lat="43.08845" lon="5.9878">
        <ele>-4.67</ele>
        <time>2019-05-29T13:10:20Z</time>
      </trkpt>
      <trkpt lat="43.08846" lon="5.98833">
        <ele>-4.67</ele>
        <time>2019-05-29T13:10:31Z</time>
      </trkpt>
      <trkpt lat="43.08849" lon="5.98888">
        <ele>-4.67</ele>
        <time>2019-05-29T13:10:42Z</time>
      </trkpt>
      <trkpt lat="43.08847" lon="5.9894">
        <ele>-4.19</ele>
        <time>2019-05-29T13:10:53Z</time>
      </trkpt>
      <trkpt lat="43.08841" lon="5.98998">
        <ele>-4.19</ele>
        <time>2019-05-29T13:11:06Z</time>
      </trkpt>
      <trkpt lat="43.08827" lon="5.99054">
        <ele>-3.71</ele>
        <time>2019-05-29T13:11:19Z</time>
      </trkpt>
      <trkpt lat="43.08824" lon="5.99104">
        <ele>-4.19</ele>
        <time>2019-05-29T13:11:31Z</time>
      </trkpt>
      <trkpt lat="43.08828" lon="5.9916">
        <ele>-3.71</ele>
        <time>2019-05-29T13:11:44Z</time>
      </trkpt>
      <trkpt lat="43.08831" lon="5.9922">
        <ele>-5.15</ele>
        <time>2019-05-29T13:11:57Z</time>
      </trkpt>
      <trkpt lat="43.08837" lon="5.99274">
        <ele>-4.67</ele>
        <time>2019-05-29T13:12:09Z</time>
      </trkpt>
      <trkpt lat="43.08845" lon="5.9933">
        <ele>-3.71</ele>
        <time>2019-05-29T13:12:22Z</time>
      </trkpt>
      <trkpt lat="43.0886" lon="5.99385">
        <ele>-4.19</ele>
        <time>2019-05-29T13:12:35Z</time>
      </trkpt>
      <trkpt lat="43.08889" lon="5.99416">
        <ele>-3.23</ele>
        <time>2019-05-29T13:12:47Z</time>
      </trkpt>
      <trkpt lat="43.08915" lon="5.99395">
        <ele>-4.67</ele>
        <time>2019-05-29T13:12:57Z</time>
      </trkpt>
      <trkpt lat="43.08943" lon="5.99376">
        <ele>-4.19</ele>
        <time>2019-05-29T13:13:06Z</time>
      </trkpt>
      <trkpt lat="43.08962" lon="5.99349">
        <ele>-6.11</ele>
        <time>2019-05-29T13:13:16Z</time>
      </trkpt>
      <trkpt lat="43.08984" lon="5.99314">
        <ele>-5.63</ele>
        <time>2019-05-29T13:13:30Z</time>
      </trkpt>
      <trkpt lat="43.0899" lon="5.99304">
        <ele>-6.11</ele>
        <time>2019-05-29T13:13:34Z</time>
      </trkpt>
      <trkpt lat="43.09008" lon="5.99276">
        <ele>-5.15</ele>
        <time>2019-05-29T13:13:46Z</time>
      </trkpt>
      <trkpt lat="43.09024" lon="5.9925">
        <ele>-6.59</ele>
        <time>2019-05-29T13:13:56Z</time>
      </trkpt>
      <trkpt lat="43.09047" lon="5.99213">
        <ele>-5.63</ele>
        <time>2019-05-29T13:14:09Z</time>
      </trkpt>
      <trkpt lat="43.09068" lon="5.99183">
        <ele>-8.03</ele>
        <time>2019-05-29T13:14:20Z</time>
      </trkpt>
      <trkpt lat="43.09092" lon="5.99148">
        <ele>-8.03</ele>
        <time>2019-05-29T13:14:32Z</time>
      </trkpt>
      <trkpt lat="43.09114" lon="5.99115">
        <ele>-8.03</ele>
        <time>2019-05-29T13:14:43Z</time>
      </trkpt>
      <trkpt lat="43.0912" lon="5.99107">
        <ele>-8.03</ele>
        <time>2019-05-29T13:14:46Z</time>
      </trkpt>
      <trkpt lat="43.09145" lon="5.99069">
        <ele>-9</ele>
        <time>2019-05-29T13:14:59Z</time>
      </trkpt>
      <trkpt lat="43.0917" lon="5.99033">
        <ele>-9.96</ele>
        <time>2019-05-29T13:15:11Z</time>
      </trkpt>
      <trkpt lat="43.0919" lon="5.99004">
        <ele>-8.03</ele>
        <time>2019-05-29T13:15:21Z</time>
      </trkpt>
      <trkpt lat="43.09201" lon="5.98985">
        <ele>-9.96</ele>
        <time>2019-05-29T13:15:27Z</time>
      </trkpt>
      <trkpt lat="43.09223" lon="5.98953">
        <ele>-8.03</ele>
        <time>2019-05-29T13:15:38Z</time>
      </trkpt>
      <trkpt lat="43.09245" lon="5.98916">
        <ele>-7.55</ele>
        <time>2019-05-29T13:15:50Z</time>
      </trkpt>
      <trkpt lat="43.09254" lon="5.98904">
        <ele>-6.11</ele>
        <time>2019-05-29T13:15:54Z</time>
      </trkpt>
      <trkpt lat="43.09277" lon="5.9887">
        <ele>-6.59</ele>
        <time>2019-05-29T13:16:06Z</time>
      </trkpt>
      <trkpt lat="43.09286" lon="5.98859">
        <ele>-6.11</ele>
        <time>2019-05-29T13:16:10Z</time>
      </trkpt>
      <trkpt lat="43.09319" lon="5.9882">
        <ele>-3.71</ele>
        <time>2019-05-29T13:16:25Z</time>
      </trkpt>
      <trkpt lat="43.09356" lon="5.9878">
        <ele>-4.67</ele>
        <time>2019-05-29T13:16:40Z</time>
      </trkpt>
      <trkpt lat="43.09384" lon="5.98747">
        <ele>-4.19</ele>
        <time>2019-05-29T13:16:52Z</time>
      </trkpt>
      <trkpt lat="43.09412" lon="5.98716">
        <ele>-3.23</ele>
        <time>2019-05-29T13:17:03Z</time>
      </trkpt>
      <trkpt lat="43.0944" lon="5.98686">
        <ele>-2.27</ele>
        <time>2019-05-29T13:17:14Z</time>
      </trkpt>
      <trkpt lat="43.09485" lon="5.98649">
        <ele>-4.19</ele>
        <time>2019-05-29T13:17:29Z</time>
      </trkpt>
      <trkpt lat="43.0951" lon="5.98621">
        <ele>-6.11</ele>
        <time>2019-05-29T13:17:40Z</time>
      </trkpt>
      <trkpt lat="43.09535" lon="5.98603">
        <ele>-6.59</ele>
        <time>2019-05-29T13:17:50Z</time>
      </trkpt>
      <trkpt lat="43.09558" lon="5.9859">
        <ele>-5.15</ele>
        <time>2019-05-29T13:17:58Z</time>
      </trkpt>
      <trkpt lat="43.09594" lon="5.98573">
        <ele>-6.11</ele>
        <time>2019-05-29T13:18:10Z</time>
      </trkpt>
      <trkpt lat="43.09623" lon="5.98557">
        <ele>-5.15</ele>
        <time>2019-05-29T13:18:20Z</time>
      </trkpt>
      <trkpt lat="43.0965" lon="5.98545">
        <ele>-7.55</ele>
        <time>2019-05-29T13:18:29Z</time>
      </trkpt>
      <trkpt lat="43.09677" lon="5.98531">
        <ele>-7.55</ele>
        <time>2019-05-29T13:18:38Z</time>
      </trkpt>
      <trkpt lat="43.097" lon="5.98521">
        <ele>-6.59</ele>
        <time>2019-05-29T13:18:46Z</time>
      </trkpt>
      <trkpt lat="43.09712" lon="5.98517">
        <ele>-6.11</ele>
        <time>2019-05-29T13:18:50Z</time>
      </trkpt>
      <trkpt lat="43.09723" lon="5.98508">
        <ele>-7.55</ele>
        <time>2019-05-29T13:18:54Z</time>
      </trkpt>
      <trkpt lat="43.0975" lon="5.98504">
        <ele>-7.07</ele>
        <time>2019-05-29T13:19:02Z</time>
      </trkpt>
      <trkpt lat="43.09762" lon="5.98495">
        <ele>-6.59</ele>
        <time>2019-05-29T13:19:06Z</time>
      </trkpt>
      <trkpt lat="43.09781" lon="5.9849">
        <ele>-9.48</ele>
        <time>2019-05-29T13:19:12Z</time>
      </trkpt>
      <trkpt lat="43.09777" lon="5.98467">
        <ele>-9</ele>
        <time>2019-05-29T13:19:21Z</time>
      </trkpt>
      <trkpt lat="43.09776" lon="5.98465">
        <ele>-9</ele>
        <time>2019-05-29T13:19:22Z</time>
      </trkpt>
      <trkpt lat="43.09764" lon="5.98439">
        <ele>-9</ele>
        <time>2019-05-29T13:19:34Z</time>
      </trkpt>
      <trkpt lat="43.09744" lon="5.9841">
        <ele>-9</ele>
        <time>2019-05-29T13:19:47Z</time>
      </trkpt>
      <trkpt lat="43.09722" lon="5.98374">
        <ele>-5.63</ele>
        <time>2019-05-29T13:20:00Z</time>
      </trkpt>
      <trkpt lat="43.09701" lon="5.98344">
        <ele>-5.63</ele>
        <time>2019-05-29T13:20:12Z</time>
      </trkpt>
      <trkpt lat="43.09678" lon="5.98308">
        <ele>-5.15</ele>
        <time>2019-05-29T13:20:27Z</time>
      </trkpt>
      <trkpt lat="43.09655" lon="5.98284">
        <ele>-3.23</ele>
        <time>2019-05-29T13:20:38Z</time>
      </trkpt>
      <trkpt lat="43.0964" lon="5.98266">
        <ele>-1.79</ele>
        <time>2019-05-29T13:20:45Z</time>
      </trkpt>
      <trkpt lat="43.09605" lon="5.98222">
        <ele>-1.3</ele>
        <time>2019-05-29T13:21:00Z</time>
      </trkpt>
      <trkpt lat="43.09575" lon="5.98182">
        <ele>-4.19</ele>
        <time>2019-05-29T13:21:14Z</time>
      </trkpt>
      <trkpt lat="43.09548" lon="5.98147">
        <ele>-4.19</ele>
        <time>2019-05-29T13:21:27Z</time>
      </trkpt>
      <trkpt lat="43.09525" lon="5.98118">
        <ele>-4.67</ele>
        <time>2019-05-29T13:21:38Z</time>
      </trkpt>
      <trkpt lat="43.095" lon="5.98092">
        <ele>-5.15</ele>
        <time>2019-05-29T13:21:49Z</time>
      </trkpt>
      <trkpt lat="43.09477" lon="5.98061">
        <ele>-5.63</ele>
        <time>2019-05-29T13:22:00Z</time>
      </trkpt>
      <trkpt lat="43.0945" lon="5.98027">
        <ele>-5.15</ele>
        <time>2019-05-29T13:22:12Z</time>
      </trkpt>
      <trkpt lat="43.09418" lon="5.97992">
        <ele>-4.67</ele>
        <time>2019-05-29T13:22:26Z</time>
      </trkpt>
      <trkpt lat="43.09394" lon="5.97974">
        <ele>-4.19</ele>
        <time>2019-05-29T13:22:36Z</time>
      </trkpt>
      <trkpt lat="43.09382" lon="5.97959">
        <ele>-4.67</ele>
        <time>2019-05-29T13:22:42Z</time>
      </trkpt>
      <trkpt lat="43.09353" lon="5.97929">
        <ele>-5.63</ele>
        <time>2019-05-29T13:22:55Z</time>
      </trkpt>
      <trkpt lat="43.09346" lon="5.97912">
        <ele>-6.11</ele>
        <time>2019-05-29T13:23:00Z</time>
      </trkpt>
      <trkpt lat="43.09315" lon="5.97885">
        <ele>-4.67</ele>
        <time>2019-05-29T13:23:13Z</time>
      </trkpt>
      <trkpt lat="43.09281" lon="5.9784">
        <ele>-6.59</ele>
        <time>2019-05-29T13:23:27Z</time>
      </trkpt>
      <trkpt lat="43.09252" lon="5.97806">
        <ele>-8.03</ele>
        <time>2019-05-29T13:23:38Z</time>
      </trkpt>
      <trkpt lat="43.09213" lon="5.97766">
        <ele>-8.03</ele>
        <time>2019-05-29T13:23:52Z</time>
      </trkpt>
      <trkpt lat="43.09179" lon="5.97722">
        <ele>-7.55</ele>
        <time>2019-05-29T13:24:06Z</time>
      </trkpt>
      <trkpt lat="43.09176" lon="5.97707">
        <ele>-6.59</ele>
        <time>2019-05-29T13:24:11Z</time>
      </trkpt>
      <trkpt lat="43.09159" lon="5.97689">
        <ele>-6.59</ele>
        <time>2019-05-29T13:24:18Z</time>
      </trkpt>
      <trkpt lat="43.09155" lon="5.97679">
        <ele>-7.55</ele>
        <time>2019-05-29T13:24:21Z</time>
      </trkpt>
      <trkpt lat="43.09139" lon="5.97665">
        <ele>-7.55</ele>
        <time>2019-05-29T13:24:27Z</time>
      </trkpt>
      <trkpt lat="43.09126" lon="5.97656">
        <ele>-7.55</ele>
        <time>2019-05-29T13:24:31Z</time>
      </trkpt>
      <trkpt lat="43.09126" lon="5.97631">
        <ele>-6.59</ele>
        <time>2019-05-29T13:24:40Z</time>
      </trkpt>
      <trkpt lat="43.09131" lon="5.97627">
        <ele>-6.11</ele>
        <time>2019-05-29T13:24:43Z</time>
      </trkpt>
      <trkpt lat="43.09156" lon="5.9761">
        <ele>-9</ele>
        <time>2019-05-29T13:24:56Z</time>
      </trkpt>
      <trkpt lat="43.09186" lon="5.97588">
        <ele>-5.63</ele>
        <time>2019-05-29T13:25:09Z</time>
      </trkpt>
      <trkpt lat="43.09226" lon="5.97562">
        <ele>-7.55</ele>
        <time>2019-05-29T13:25:24Z</time>
      </trkpt>
      <trkpt lat="43.09263" lon="5.9753">
        <ele>-7.07</ele>
        <time>2019-05-29T13:25:37Z</time>
      </trkpt>
      <trkpt lat="43.093" lon="5.97493">
        <ele>-5.63</ele>
        <time>2019-05-29T13:25:51Z</time>
      </trkpt>
      <trkpt lat="43.09337" lon="5.97455">
        <ele>-6.59</ele>
        <time>2019-05-29T13:26:06Z</time>
      </trkpt>
      <trkpt lat="43.09366" lon="5.97423">
        <ele>-6.11</ele>
        <time>2019-05-29T13:26:19Z</time>
      </trkpt>
      <trkpt lat="43.09391" lon="5.97394">
        <ele>-7.07</ele>
        <time>2019-05-29T13:26:30Z</time>
      </trkpt>
      <trkpt lat="43.09419" lon="5.97364">
        <ele>-8.03</ele>
        <time>2019-05-29T13:26:42Z</time>
      </trkpt>
      <trkpt lat="43.09447" lon="5.97333">
        <ele>-8.03</ele>
        <time>2019-05-29T13:26:54Z</time>
      </trkpt>
      <trkpt lat="43.09476" lon="5.97297">
        <ele>-7.55</ele>
        <time>2019-05-29T13:27:08Z</time>
      </trkpt>
      <trkpt lat="43.09509" lon="5.9726">
        <ele>-7.55</ele>
        <time>2019-05-29T13:27:23Z</time>
      </trkpt>
      <trkpt lat="43.09537" lon="5.97228">
        <ele>-5.63</ele>
        <time>2019-05-29T13:27:36Z</time>
      </trkpt>
      <trkpt lat="43.0957" lon="5.97193">
        <ele>-5.63</ele>
        <time>2019-05-29T13:27:52Z</time>
      </trkpt>
      <trkpt lat="43.09602" lon="5.97156">
        <ele>-7.55</ele>
        <time>2019-05-29T13:28:08Z</time>
      </trkpt>
      <trkpt lat="43.09637" lon="5.97114">
        <ele>-7.07</ele>
        <time>2019-05-29T13:28:25Z</time>
      </trkpt>
      <trkpt lat="43.09668" lon="5.97078">
        <ele>-5.63</ele>
        <time>2019-05-29T13:28:38Z</time>
      </trkpt>
      <trkpt lat="43.09698" lon="5.97037">
        <ele>-4.67</ele>
        <time>2019-05-29T13:28:52Z</time>
      </trkpt>
      <trkpt lat="43.09725" lon="5.97">
        <ele>-2.27</ele>
        <time>2019-05-29T13:29:05Z</time>
      </trkpt>
      <trkpt lat="43.09753" lon="5.96969">
        <ele>-3.23</ele>
        <time>2019-05-29T13:29:18Z</time>
      </trkpt>
      <trkpt lat="43.09785" lon="5.96928">
        <ele>-2.27</ele>
        <time>2019-05-29T13:29:33Z</time>
      </trkpt>
      <trkpt lat="43.09817" lon="5.9688">
        <ele>-0.82</ele>
        <time>2019-05-29T13:29:50Z</time>
      </trkpt>
      <trkpt lat="43.09841" lon="5.96849">
        <ele>-2.27</ele>
        <time>2019-05-29T13:30:01Z</time>
      </trkpt>
      <trkpt lat="43.09879" lon="5.96814">
        <ele>-4.19</ele>
        <time>2019-05-29T13:30:14Z</time>
      </trkpt>
      <trkpt lat="43.09914" lon="5.96768">
        <ele>-1.3</ele>
        <time>2019-05-29T13:30:28Z</time>
      </trkpt>
      <trkpt lat="43.09948" lon="5.9672">
        <ele>-0.82</ele>
        <time>2019-05-29T13:30:42Z</time>
      </trkpt>
      <trkpt lat="43.09974" lon="5.96674">
        <ele>-0.34</ele>
        <time>2019-05-29T13:30:55Z</time>
      </trkpt>
      <trkpt lat="43.09993" lon="5.96634">
        <ele>1.58</ele>
        <time>2019-05-29T13:31:06Z</time>
      </trkpt>
      <trkpt lat="43.10023" lon="5.96588">
        <ele>1.58</ele>
        <time>2019-05-29T13:31:19Z</time>
      </trkpt>
      <trkpt lat="43.10052" lon="5.96546">
        <ele>1.58</ele>
        <time>2019-05-29T13:31:31Z</time>
      </trkpt>
      <trkpt lat="43.10086" lon="5.96496">
        <ele>0.62</ele>
        <time>2019-05-29T13:31:46Z</time>
      </trkpt>
      <trkpt lat="43.10089" lon="5.96489">
        <ele>0.14</ele>
        <time>2019-05-29T13:31:48Z</time>
      </trkpt>
      <trkpt lat="43.10085" lon="5.96481">
        <ele>-0.34</ele>
        <time>2019-05-29T13:31:52Z</time>
      </trkpt>
      <trkpt lat="43.1006" lon="5.96462">
        <ele>-3.23</ele>
        <time>2019-05-29T13:32:06Z</time>
      </trkpt>
      <trkpt lat="43.10027" lon="5.96434">
        <ele>-3.71</ele>
        <time>2019-05-29T13:32:21Z</time>
      </trkpt>
      <trkpt lat="43.10001" lon="5.96406">
        <ele>-4.19</ele>
        <time>2019-05-29T13:32:34Z</time>
      </trkpt>
      <trkpt lat="43.09968" lon="5.96375">
        <ele>-7.55</ele>
        <time>2019-05-29T13:32:47Z</time>
      </trkpt>
      <trkpt lat="43.09935" lon="5.96351">
        <ele>-9.96</ele>
        <time>2019-05-29T13:32:58Z</time>
      </trkpt>
      <trkpt lat="43.09902" lon="5.96325">
        <ele>-12.36</ele>
        <time>2019-05-29T13:33:09Z</time>
      </trkpt>
      <trkpt lat="43.09849" lon="5.96285">
        <ele>-12.84</ele>
        <time>2019-05-29T13:33:25Z</time>
      </trkpt>
      <trkpt lat="43.09815" lon="5.96251">
        <ele>-12.84</ele>
        <time>2019-05-29T13:33:36Z</time>
      </trkpt>
      <trkpt lat="43.09764" lon="5.9621">
        <ele>-9.96</ele>
        <time>2019-05-29T13:33:51Z</time>
      </trkpt>
      <trkpt lat="43.09714" lon="5.96171">
        <ele>-8.51</ele>
        <time>2019-05-29T13:34:07Z</time>
      </trkpt>
      <trkpt lat="43.09677" lon="5.96133">
        <ele>-8.03</ele>
        <time>2019-05-29T13:34:20Z</time>
      </trkpt>
      <trkpt lat="43.09632" lon="5.96088">
        <ele>-8.51</ele>
        <time>2019-05-29T13:34:36Z</time>
      </trkpt>
      <trkpt lat="43.09596" lon="5.96051">
        <ele>-10.44</ele>
        <time>2019-05-29T13:34:49Z</time>
      </trkpt>
      <trkpt lat="43.09548" lon="5.96006">
        <ele>-9.96</ele>
        <time>2019-05-29T13:35:06Z</time>
      </trkpt>
      <trkpt lat="43.09511" lon="5.95972">
        <ele>-10.44</ele>
        <time>2019-05-29T13:35:20Z</time>
      </trkpt>
      <trkpt lat="43.09469" lon="5.95937">
        <ele>-9.96</ele>
        <time>2019-05-29T13:35:35Z</time>
      </trkpt>
      <trkpt lat="43.09444" lon="5.95913">
        <ele>-12.36</ele>
        <time>2019-05-29T13:35:45Z</time>
      </trkpt>
      <trkpt lat="43.09407" lon="5.95885">
        <ele>-10.92</ele>
        <time>2019-05-29T13:35:59Z</time>
      </trkpt>
      <trkpt lat="43.0937" lon="5.95859">
        <ele>-9.96</ele>
        <time>2019-05-29T13:36:12Z</time>
      </trkpt>
      <trkpt lat="43.09327" lon="5.95827">
        <ele>-9.48</ele>
        <time>2019-05-29T13:36:26Z</time>
      </trkpt>
      <trkpt lat="43.0929" lon="5.95801">
        <ele>-8.51</ele>
        <time>2019-05-29T13:36:38Z</time>
      </trkpt>
      <trkpt lat="43.09253" lon="5.95774">
        <ele>-9</ele>
        <time>2019-05-29T13:36:51Z</time>
      </trkpt>
      <trkpt lat="43.09216" lon="5.95744">
        <ele>-9.48</ele>
        <time>2019-05-29T13:37:04Z</time>
      </trkpt>
      <trkpt lat="43.09181" lon="5.95714">
        <ele>-9.96</ele>
        <time>2019-05-29T13:37:16Z</time>
      </trkpt>
      <trkpt lat="43.09138" lon="5.9568">
        <ele>-9</ele>
        <time>2019-05-29T13:37:30Z</time>
      </trkpt>
      <trkpt lat="43.09122" lon="5.9567">
        <ele>-9</ele>
        <time>2019-05-29T13:37:35Z</time>
      </trkpt>
      <trkpt lat="43.09126" lon="5.95656">
        <ele>-7.55</ele>
        <time>2019-05-29T13:37:41Z</time>
      </trkpt>
      <trkpt lat="43.09132" lon="5.95655">
        <ele>-7.07</ele>
        <time>2019-05-29T13:37:44Z</time>
      </trkpt>
      <trkpt lat="43.09137" lon="5.95643">
        <ele>-6.59</ele>
        <time>2019-05-29T13:37:52Z</time>
      </trkpt>
      <trkpt lat="43.09153" lon="5.95628">
        <ele>-6.59</ele>
        <time>2019-05-29T13:38:02Z</time>
      </trkpt>
      <trkpt lat="43.09188" lon="5.95588">
        <ele>-6.11</ele>
        <time>2019-05-29T13:38:19Z</time>
      </trkpt>
      <trkpt lat="43.09235" lon="5.95538">
        <ele>-3.71</ele>
        <time>2019-05-29T13:38:37Z</time>
      </trkpt>
      <trkpt lat="43.09276" lon="5.95498">
        <ele>-4.67</ele>
        <time>2019-05-29T13:38:52Z</time>
      </trkpt>
      <trkpt lat="43.09318" lon="5.95456">
        <ele>-5.63</ele>
        <time>2019-05-29T13:39:08Z</time>
      </trkpt>
      <trkpt lat="43.09354" lon="5.95423">
        <ele>-6.59</ele>
        <time>2019-05-29T13:39:22Z</time>
      </trkpt>
      <trkpt lat="43.09393" lon="5.95381">
        <ele>-3.23</ele>
        <time>2019-05-29T13:39:38Z</time>
      </trkpt>
      <trkpt lat="43.09436" lon="5.95338">
        <ele>-4.19</ele>
        <time>2019-05-29T13:39:55Z</time>
      </trkpt>
      <trkpt lat="43.09478" lon="5.95297">
        <ele>-3.71</ele>
        <time>2019-05-29T13:40:12Z</time>
      </trkpt>
      <trkpt lat="43.09522" lon="5.95257">
        <ele>-4.67</ele>
        <time>2019-05-29T13:40:28Z</time>
      </trkpt>
      <trkpt lat="43.09568" lon="5.95215">
        <ele>-4.19</ele>
        <time>2019-05-29T13:40:44Z</time>
      </trkpt>
      <trkpt lat="43.09606" lon="5.95182">
        <ele>-4.67</ele>
        <time>2019-05-29T13:40:57Z</time>
      </trkpt>
      <trkpt lat="43.09656" lon="5.95134">
        <ele>-3.71</ele>
        <time>2019-05-29T13:41:15Z</time>
      </trkpt>
      <trkpt lat="43.097" lon="5.95092">
        <ele>-4.19</ele>
        <time>2019-05-29T13:41:31Z</time>
      </trkpt>
      <trkpt lat="43.09739" lon="5.95055">
        <ele>-4.67</ele>
        <time>2019-05-29T13:41:45Z</time>
      </trkpt>
      <trkpt lat="43.09772" lon="5.9502">
        <ele>-4.67</ele>
        <time>2019-05-29T13:41:59Z</time>
      </trkpt>
      <trkpt lat="43.0981" lon="5.94972">
        <ele>-4.67</ele>
        <time>2019-05-29T13:42:16Z</time>
      </trkpt>
      <trkpt lat="43.09847" lon="5.94923">
        <ele>-2.75</ele>
        <time>2019-05-29T13:42:33Z</time>
      </trkpt>
      <trkpt lat="43.09874" lon="5.94891">
        <ele>-2.75</ele>
        <time>2019-05-29T13:42:46Z</time>
      </trkpt>
      <trkpt lat="43.099" lon="5.94862">
        <ele>-2.75</ele>
        <time>2019-05-29T13:43:01Z</time>
      </trkpt>
      <trkpt lat="43.09923" lon="5.94851">
        <ele>-4.19</ele>
        <time>2019-05-29T13:43:13Z</time>
      </trkpt>
      <trkpt lat="43.0995" lon="5.94843">
        <ele>-3.71</ele>
        <time>2019-05-29T13:43:28Z</time>
      </trkpt>
      <trkpt lat="43.09977" lon="5.94835">
        <ele>-5.15</ele>
        <time>2019-05-29T13:43:42Z</time>
      </trkpt>
      <trkpt lat="43.10014" lon="5.94831">
        <ele>-3.71</ele>
        <time>2019-05-29T13:43:55Z</time>
      </trkpt>
      <trkpt lat="43.1004" lon="5.9483">
        <ele>-3.23</ele>
        <time>2019-05-29T13:44:03Z</time>
      </trkpt>
      <trkpt lat="43.10045" lon="5.9482">
        <ele>-4.67</ele>
        <time>2019-05-29T13:44:07Z</time>
      </trkpt>
      <trkpt lat="43.10022" lon="5.94777">
        <ele>-7.55</ele>
        <time>2019-05-29T13:44:22Z</time>
      </trkpt>
      <trkpt lat="43.0999" lon="5.94728">
        <ele>-8.51</ele>
        <time>2019-05-29T13:44:38Z</time>
      </trkpt>
      <trkpt lat="43.09955" lon="5.94669">
        <ele>-9.48</ele>
        <time>2019-05-29T13:44:56Z</time>
      </trkpt>
      <trkpt lat="43.09918" lon="5.94616">
        <ele>-10.44</ele>
        <time>2019-05-29T13:45:13Z</time>
      </trkpt>
      <trkpt lat="43.09891" lon="5.94564">
        <ele>-7.07</ele>
        <time>2019-05-29T13:45:29Z</time>
      </trkpt>
      <trkpt lat="43.09876" lon="5.94523">
        <ele>-8.51</ele>
        <time>2019-05-29T13:45:42Z</time>
      </trkpt>
      <trkpt lat="43.09857" lon="5.94474">
        <ele>-7.07</ele>
        <time>2019-05-29T13:45:58Z</time>
      </trkpt>
      <trkpt lat="43.09853" lon="5.94437">
        <ele>-7.55</ele>
        <time>2019-05-29T13:46:14Z</time>
      </trkpt>
      <trkpt lat="43.09846" lon="5.94417">
        <ele>-6.11</ele>
        <time>2019-05-29T13:46:23Z</time>
      </trkpt>
      <trkpt lat="43.09861" lon="5.94414">
        <ele>-4.19</ele>
        <time>2019-05-29T13:46:39Z</time>
      </trkpt>
      <trkpt lat="43.09875" lon="5.94412">
        <ele>-3.71</ele>
        <time>2019-05-29T13:46:59Z</time>
      </trkpt>
      <trkpt lat="43.09886" lon="5.94414">
        <ele>-4.19</ele>
        <time>2019-05-29T13:47:12Z</time>
      </trkpt>
      <trkpt lat="43.09892" lon="5.94417">
        <ele>-2.75</ele>
        <time>2019-05-29T13:47:17Z</time>
      </trkpt>
      <trkpt lat="43.09916" lon="5.94423">
        <ele>-1.79</ele>
        <time>2019-05-29T13:47:34Z</time>
      </trkpt>
      <trkpt lat="43.09924" lon="5.94411">
        <ele>-3.23</ele>
        <time>2019-05-29T13:47:48Z</time>
      </trkpt>
      <trkpt lat="43.09917" lon="5.94406">
        <ele>-3.71</ele>
        <time>2019-05-29T13:47:53Z</time>
      </trkpt>
      <trkpt lat="43.09893" lon="5.94365">
        <ele>-3.71</ele>
        <time>2019-05-29T13:48:11Z</time>
      </trkpt>
      <trkpt lat="43.09861" lon="5.94328">
        <ele>-3.23</ele>
        <time>2019-05-29T13:48:31Z</time>
      </trkpt>
      <trkpt lat="43.09827" lon="5.943">
        <ele>-4.19</ele>
        <time>2019-05-29T13:48:51Z</time>
      </trkpt>
      <trkpt lat="43.09793" lon="5.94272">
        <ele>-5.15</ele>
        <time>2019-05-29T13:49:07Z</time>
      </trkpt>
      <trkpt lat="43.09758" lon="5.94236">
        <ele>-6.59</ele>
        <time>2019-05-29T13:49:22Z</time>
      </trkpt>
      <trkpt lat="43.09717" lon="5.94192">
        <ele>-6.11</ele>
        <time>2019-05-29T13:49:38Z</time>
      </trkpt>
      <trkpt lat="43.09663" lon="5.94138">
        <ele>-9.96</ele>
        <time>2019-05-29T13:49:59Z</time>
      </trkpt>
      <trkpt lat="43.09613" lon="5.94103">
        <ele>-8.03</ele>
        <time>2019-05-29T13:50:17Z</time>
      </trkpt>
      <trkpt lat="43.0957" lon="5.94065">
        <ele>-8.51</ele>
        <time>2019-05-29T13:50:34Z</time>
      </trkpt>
      <trkpt lat="43.09529" lon="5.94012">
        <ele>-7.07</ele>
        <time>2019-05-29T13:50:54Z</time>
      </trkpt>
      <trkpt lat="43.095" lon="5.93969">
        <ele>-6.59</ele>
        <time>2019-05-29T13:51:11Z</time>
      </trkpt>
      <trkpt lat="43.0947" lon="5.93929">
        <ele>-6.11</ele>
        <time>2019-05-29T13:51:27Z</time>
      </trkpt>
      <trkpt lat="43.09436" lon="5.93894">
        <ele>-5.63</ele>
        <time>2019-05-29T13:51:44Z</time>
      </trkpt>
      <trkpt lat="43.09397" lon="5.93852">
        <ele>-6.59</ele>
        <time>2019-05-29T13:52:02Z</time>
      </trkpt>
      <trkpt lat="43.09364" lon="5.93815">
        <ele>-5.63</ele>
        <time>2019-05-29T13:52:17Z</time>
      </trkpt>
      <trkpt lat="43.09329" lon="5.93779">
        <ele>-6.11</ele>
        <time>2019-05-29T13:52:33Z</time>
      </trkpt>
      <trkpt lat="43.09306" lon="5.9374">
        <ele>-6.59</ele>
        <time>2019-05-29T13:52:47Z</time>
      </trkpt>
      <trkpt lat="43.09271" lon="5.93702">
        <ele>-8.03</ele>
        <time>2019-05-29T13:53:04Z</time>
      </trkpt>
      <trkpt lat="43.09256" lon="5.93667">
        <ele>-9</ele>
        <time>2019-05-29T13:53:15Z</time>
      </trkpt>
      <trkpt lat="43.0924" lon="5.93639">
        <ele>-9</ele>
        <time>2019-05-29T13:53:27Z</time>
      </trkpt>
      <trkpt lat="43.09212" lon="5.93614">
        <ele>-7.55</ele>
        <time>2019-05-29T13:53:43Z</time>
      </trkpt>
      <trkpt lat="43.09184" lon="5.93624">
        <ele>-5.15</ele>
        <time>2019-05-29T13:53:58Z</time>
      </trkpt>
      <trkpt lat="43.09169" lon="5.93652">
        <ele>-6.11</ele>
        <time>2019-05-29T13:54:10Z</time>
      </trkpt>
      <trkpt lat="43.09143" lon="5.93683">
        <ele>-4.67</ele>
        <time>2019-05-29T13:54:26Z</time>
      </trkpt>
      <trkpt lat="43.09108" lon="5.937">
        <ele>-3.23</ele>
        <time>2019-05-29T13:54:43Z</time>
      </trkpt>
      <trkpt lat="43.09082" lon="5.93707">
        <ele>-3.71</ele>
        <time>2019-05-29T13:54:57Z</time>
      </trkpt>
      <trkpt lat="43.0905" lon="5.93694">
        <ele>-5.15</ele>
        <time>2019-05-29T13:55:18Z</time>
      </trkpt>
      <trkpt lat="43.09023" lon="5.93669">
        <ele>-7.55</ele>
        <time>2019-05-29T13:55:37Z</time>
      </trkpt>
      <trkpt lat="43.08993" lon="5.93649">
        <ele>-9</ele>
        <time>2019-05-29T13:55:54Z</time>
      </trkpt>
      <trkpt lat="43.08976" lon="5.93625">
        <ele>-7.07</ele>
        <time>2019-05-29T13:56:10Z</time>
      </trkpt>
      <trkpt lat="43.08965" lon="5.93613">
        <ele>-8.51</ele>
        <time>2019-05-29T13:56:27Z</time>
      </trkpt>
      <trkpt lat="43.08964" lon="5.93606">
        <ele>-8.03</ele>
        <time>2019-05-29T13:56:45Z</time>
      </trkpt>
      <trkpt lat="43.08964" lon="5.93606">
        <ele>-7.55</ele>
        <time>2019-05-29T13:56:48Z</time>
      </trkpt>
      <trkpt lat="43.08974" lon="5.93594">
        <ele>-7.55</ele>
        <time>2019-05-29T13:56:58Z</time>
      </trkpt>
      <trkpt lat="43.0896" lon="5.93582">
        <ele>-6.59</ele>
        <time>2019-05-29T13:57:10Z</time>
      </trkpt>
      <trkpt lat="43.08958" lon="5.93604">
        <ele>-5.15</ele>
        <time>2019-05-29T13:57:17Z</time>
      </trkpt>
      <trkpt lat="43.08982" lon="5.93649">
        <ele>-4.67</ele>
        <time>2019-05-29T13:57:33Z</time>
      </trkpt>
      <trkpt lat="43.09" lon="5.93704">
        <ele>-4.19</ele>
        <time>2019-05-29T13:57:53Z</time>
      </trkpt>
      <trkpt lat="43.09005" lon="5.93729">
        <ele>-1.79</ele>
        <time>2019-05-29T13:58:10Z</time>
      </trkpt>
      <trkpt lat="43.09011" lon="5.93741">
        <ele>-1.3</ele>
        <time>2019-05-29T13:58:19Z</time>
      </trkpt>
      <trkpt lat="43.09027" lon="5.93753">
        <ele>-1.79</ele>
        <time>2019-05-29T13:58:34Z</time>
      </trkpt>
      <trkpt lat="43.0904" lon="5.9376">
        <ele>-1.79</ele>
        <time>2019-05-29T13:58:50Z</time>
      </trkpt>
      <trkpt lat="43.0905" lon="5.93766">
        <ele>-2.75</ele>
        <time>2019-05-29T13:59:03Z</time>
      </trkpt>
      <trkpt lat="43.09071" lon="5.93765">
        <ele>-4.19</ele>
        <time>2019-05-29T13:59:18Z</time>
      </trkpt>
      <trkpt lat="43.09073" lon="5.93758">
        <ele>-4.67</ele>
        <time>2019-05-29T13:59:21Z</time>
      </trkpt>
      <trkpt lat="43.09069" lon="5.93753">
        <ele>-4.67</ele>
        <time>2019-05-29T13:59:25Z</time>
      </trkpt>
      <trkpt lat="43.09038" lon="5.9373">
        <ele>-5.63</ele>
        <time>2019-05-29T13:59:43Z</time>
      </trkpt>
      <trkpt lat="43.09009" lon="5.93693">
        <ele>-7.55</ele>
        <time>2019-05-29T14:00:02Z</time>
      </trkpt>
      <trkpt lat="43.08981" lon="5.93662">
        <ele>-9</ele>
        <time>2019-05-29T14:00:19Z</time>
      </trkpt>
      <trkpt lat="43.08956" lon="5.93616">
        <ele>-10.92</ele>
        <time>2019-05-29T14:00:36Z</time>
      </trkpt>
      <trkpt lat="43.08936" lon="5.93557">
        <ele>-9</ele>
        <time>2019-05-29T14:00:54Z</time>
      </trkpt>
      <trkpt lat="43.08919" lon="5.93508">
        <ele>-7.55</ele>
        <time>2019-05-29T14:01:09Z</time>
      </trkpt>
      <trkpt lat="43.08899" lon="5.93447">
        <ele>-7.07</ele>
        <time>2019-05-29T14:01:28Z</time>
      </trkpt>
      <trkpt lat="43.08876" lon="5.93399">
        <ele>-6.11</ele>
        <time>2019-05-29T14:01:44Z</time>
      </trkpt>
      <trkpt lat="43.08862" lon="5.93347">
        <ele>-8.51</ele>
        <time>2019-05-29T14:02:00Z</time>
      </trkpt>
      <trkpt lat="43.08853" lon="5.93289">
        <ele>-10.44</ele>
        <time>2019-05-29T14:02:17Z</time>
      </trkpt>
      <trkpt lat="43.08833" lon="5.93234">
        <ele>-8.51</ele>
        <time>2019-05-29T14:02:34Z</time>
      </trkpt>
      <trkpt lat="43.088" lon="5.93186">
        <ele>-9.96</ele>
        <time>2019-05-29T14:02:52Z</time>
      </trkpt>
      <trkpt lat="43.0877" lon="5.93137">
        <ele>-8.51</ele>
        <time>2019-05-29T14:03:10Z</time>
      </trkpt>
      <trkpt lat="43.08752" lon="5.93093">
        <ele>-7.07</ele>
        <time>2019-05-29T14:03:24Z</time>
      </trkpt>
      <trkpt lat="43.08724" lon="5.93044">
        <ele>-7.55</ele>
        <time>2019-05-29T14:03:41Z</time>
      </trkpt>
      <trkpt lat="43.08697" lon="5.93003">
        <ele>-7.55</ele>
        <time>2019-05-29T14:03:56Z</time>
      </trkpt>
      <trkpt lat="43.08664" lon="5.92952">
        <ele>-7.07</ele>
        <time>2019-05-29T14:04:15Z</time>
      </trkpt>
      <trkpt lat="43.08646" lon="5.9293">
        <ele>-8.51</ele>
        <time>2019-05-29T14:04:30Z</time>
      </trkpt>
      <trkpt lat="43.08643" lon="5.92927">
        <ele>-8.51</ele>
        <time>2019-05-29T14:04:33Z</time>
      </trkpt>
      <trkpt lat="43.08626" lon="5.92906">
        <ele>-9.48</ele>
        <time>2019-05-29T14:04:52Z</time>
      </trkpt>
      <trkpt lat="43.08621" lon="5.92895">
        <ele>-9</ele>
        <time>2019-05-29T14:05:01Z</time>
      </trkpt>
      <trkpt lat="43.08617" lon="5.92884">
        <ele>-9</ele>
        <time>2019-05-29T14:05:10Z</time>
      </trkpt>
      <trkpt lat="43.08608" lon="5.92858">
        <ele>-9.96</ele>
        <time>2019-05-29T14:05:22Z</time>
      </trkpt>
      <trkpt lat="43.08583" lon="5.92821">
        <ele>-10.92</ele>
        <time>2019-05-29T14:05:37Z</time>
      </trkpt>
      <trkpt lat="43.08556" lon="5.92782">
        <ele>-10.92</ele>
        <time>2019-05-29T14:05:52Z</time>
      </trkpt>
      <trkpt lat="43.08515" lon="5.92736">
        <ele>-10.44</ele>
        <time>2019-05-29T14:06:12Z</time>
      </trkpt>
      <trkpt lat="43.08491" lon="5.92707">
        <ele>-10.92</ele>
        <time>2019-05-29T14:06:24Z</time>
      </trkpt>
      <trkpt lat="43.08464" lon="5.92673">
        <ele>-9.96</ele>
        <time>2019-05-29T14:06:38Z</time>
      </trkpt>
      <trkpt lat="43.08444" lon="5.92645">
        <ele>-9.48</ele>
        <time>2019-05-29T14:06:53Z</time>
      </trkpt>
      <trkpt lat="43.08427" lon="5.92619">
        <ele>-9.48</ele>
        <time>2019-05-29T14:07:10Z</time>
      </trkpt>
      <trkpt lat="43.08408" lon="5.92592">
        <ele>-8.03</ele>
        <time>2019-05-29T14:07:26Z</time>
      </trkpt>
      <trkpt lat="43.08372" lon="5.92552">
        <ele>-6.59</ele>
        <time>2019-05-29T14:07:44Z</time>
      </trkpt>
      <trkpt lat="43.08336" lon="5.92526">
        <ele>-6.59</ele>
        <time>2019-05-29T14:07:59Z</time>
      </trkpt>
      <trkpt lat="43.0829" lon="5.92519">
        <ele>-5.63</ele>
        <time>2019-05-29T14:08:21Z</time>
      </trkpt>
      <trkpt lat="43.08249" lon="5.92514">
        <ele>-4.19</ele>
        <time>2019-05-29T14:08:44Z</time>
      </trkpt>
      <trkpt lat="43.08214" lon="5.92513">
        <ele>-3.71</ele>
        <time>2019-05-29T14:09:07Z</time>
      </trkpt>
      <trkpt lat="43.08196" lon="5.92512">
        <ele>-3.23</ele>
        <time>2019-05-29T14:09:20Z</time>
      </trkpt>
      <trkpt lat="43.082" lon="5.92492">
        <ele>-4.67</ele>
        <time>2019-05-29T14:09:35Z</time>
      </trkpt>
      <trkpt lat="43.08206" lon="5.92495">
        <ele>-4.67</ele>
        <time>2019-05-29T14:09:43Z</time>
      </trkpt>
      <trkpt lat="43.08212" lon="5.92508">
        <ele>-2.75</ele>
        <time>2019-05-29T14:09:54Z</time>
      </trkpt>
      <trkpt lat="43.08222" lon="5.92508">
        <ele>-2.27</ele>
        <time>2019-05-29T14:10:06Z</time>
      </trkpt>
      <trkpt lat="43.08231" lon="5.92499">
        <ele>-1.79</ele>
        <time>2019-05-29T14:10:20Z</time>
      </trkpt>
      <trkpt lat="43.08223" lon="5.92487">
        <ele>-3.23</ele>
        <time>2019-05-29T14:10:39Z</time>
      </trkpt>
      <trkpt lat="43.08209" lon="5.92474">
        <ele>-4.67</ele>
        <time>2019-05-29T14:10:59Z</time>
      </trkpt>
      <trkpt lat="43.08196" lon="5.92457">
        <ele>-2.27</ele>
        <time>2019-05-29T14:11:20Z</time>
      </trkpt>
      <trkpt lat="43.08194" lon="5.92456">
        <ele>-2.27</ele>
        <time>2019-05-29T14:11:22Z</time>
      </trkpt>
      <trkpt lat="43.08158" lon="5.92463">
        <ele>-1.3</ele>
        <time>2019-05-29T14:11:46Z</time>
      </trkpt>
      <trkpt lat="43.08114" lon="5.92483">
        <ele>1.58</ele>
        <time>2019-05-29T14:12:07Z</time>
      </trkpt>
      <trkpt lat="43.0808" lon="5.92495">
        <ele>2.06</ele>
        <time>2019-05-29T14:12:28Z</time>
      </trkpt>
      <trkpt lat="43.08044" lon="5.92504">
        <ele>0.62</ele>
        <time>2019-05-29T14:12:55Z</time>
      </trkpt>
      <trkpt lat="43.0802" lon="5.92505">
        <ele>1.58</ele>
        <time>2019-05-29T14:13:14Z</time>
      </trkpt>
      <trkpt lat="43.08013" lon="5.92507">
        <ele>1.58</ele>
        <time>2019-05-29T14:13:34Z</time>
      </trkpt>
      <trkpt lat="43.08023" lon="5.92509">
        <ele>1.58</ele>
        <time>2019-05-29T14:13:48Z</time>
      </trkpt>
      <trkpt lat="43.08033" lon="5.92491">
        <ele>-0.82</ele>
        <time>2019-05-29T14:14:03Z</time>
      </trkpt>
      <trkpt lat="43.08036" lon="5.92471">
        <ele>-2.75</ele>
        <time>2019-05-29T14:14:19Z</time>
      </trkpt>
      <trkpt lat="43.08039" lon="5.92454">
        <ele>-2.75</ele>
        <time>2019-05-29T14:14:35Z</time>
      </trkpt>
      <trkpt lat="43.08041" lon="5.92443">
        <ele>-1.79</ele>
        <time>2019-05-29T14:14:47Z</time>
      </trkpt>
      <trkpt lat="43.08041" lon="5.92438">
        <ele>-0.34</ele>
        <time>2019-05-29T14:15:03Z</time>
      </trkpt>
      <trkpt lat="43.08042" lon="5.92435">
        <ele>-0.34</ele>
        <time>2019-05-29T14:15:18Z</time>
      </trkpt>
      <trkpt lat="43.08043" lon="5.92436">
        <ele>-2.75</ele>
        <time>2019-05-29T14:15:41Z</time>
      </trkpt>
      <trkpt lat="43.08043" lon="5.92435">
        <ele>-2.75</ele>
        <time>2019-05-29T14:16:06Z</time>
      </trkpt>
      <trkpt lat="43.08044" lon="5.92432">
        <ele>-4.19</ele>
        <time>2019-05-29T14:16:26Z</time>
      </trkpt>
      <trkpt lat="43.08045" lon="5.92432">
        <ele>-4.19</ele>
        <time>2019-05-29T14:16:45Z</time>
      </trkpt>
      <trkpt lat="43.08045" lon="5.92431">
        <ele>-4.67</ele>
        <time>2019-05-29T14:17:09Z</time>
      </trkpt>
      <trkpt lat="43.08045" lon="5.92431">
        <ele>-4.19</ele>
        <time>2019-05-29T14:17:33Z</time>
      </trkpt>
      <trkpt lat="43.08045" lon="5.92432">
        <ele>-3.71</ele>
        <time>2019-05-29T14:17:49Z</time>
      </trkpt>
    </trkseg>
  </trk>
</gpx>